Observation data for Odell on 10/18/2019      Previous  Date       Current Mesonet Observations  Soil Data  Daily Summary Page  Observations in Plain Language
KOD1 180500Z 16009KT 15/04 A2985 RMK A01 T01470040  RH  048%=      5-min Rain = 0
KOD1 180501Z 16009KT 15/04 A2985 RMK A01 T01470040  RH  048%=      5-min Rain = 0
KOD1 180502Z 16009KT 15/04 A2985 RMK A01 T01470039  RH  048%=      5-min Rain = 0
KOD1 180503Z 16009KT 15/04 A2985 RMK A01 T01480039  RH  048%=      5-min Rain = 0
KOD1 180504Z 16009KT 15/04 A2985 RMK A01 T01480039  RH  048%=      5-min Rain = 0
KOD1 180505Z 16009KT 15/04 A2985 RMK A01 T01480039  RH  048%=      5-min Rain = 0
KOD1 180506Z 17009KT 15/04 A2985 RMK A01 T01480039  RH  048%=      5-min Rain = 0
KOD1 180507Z 16008KT 15/04 A2985 RMK A01 T01480039  RH  048%=      5-min Rain = 0
KOD1 180508Z 17010KT 15/04 A2985 RMK A01 T01480039  RH  048%=      5-min Rain = 0
KOD1 180509Z 17009KT 15/04 A2985 RMK A01 T01490039  RH  047%=      5-min Rain = 0
KOD1 180510Z 17009KT 15/04 A2985 RMK A01 T01490039  RH  047%=      5-min Rain = 0
KOD1 180511Z 16009KT 15/04 A2985 RMK A01 T01490038  RH  047%=      5-min Rain = 0
KOD1 180512Z 16009KT 15/04 A2985 RMK A01 T01490038  RH  047%=      5-min Rain = 0
KOD1 180513Z 16008KT 15/04 A2985 RMK A01 T01490039  RH  048%=      5-min Rain = 0
KOD1 180514Z 16011KT 15/04 A2985 RMK A01 T01480038  RH  048%=      5-min Rain = 0
KOD1 180515Z 16010KT 15/04 A2985 RMK A01 T01490038  RH  047%=      5-min Rain = 0
KOD1 180516Z 16009KT 15/04 A2986 RMK A01 T01500038  RH  047%=      5-min Rain = 0
KOD1 180517Z 16009KT 15/04 A2986 RMK A01 T01500038  RH  047%=      5-min Rain = 0
KOD1 180518Z 16009KT 15/04 A2986 RMK A01 T01490038  RH  047%=      5-min Rain = 0
KOD1 180519Z 16011KT 15/04 A2986 RMK A01 T01490038  RH  047%=      5-min Rain = 0
KOD1 180520Z 16010KT 15/04 A2986 RMK A01 T01490037  RH  047%=      5-min Rain = 0
KOD1 180521Z 17010KT 15/04 A2986 RMK A01 T01500038  RH  047%=      5-min Rain = 0
KOD1 180522Z 17010KT 15/04 A2986 RMK A01 T01500038  RH  047%=      5-min Rain = 0
KOD1 180523Z 17010KT 15/04 A2986 RMK A01 T01490037  RH  047%=      5-min Rain = 0
KOD1 180524Z 17009KT 15/04 A2986 RMK A01 T01490037  RH  047%=      5-min Rain = 0
KOD1 180525Z 17009KT 15/04 A2986 RMK A01 T01490037  RH  047%=      5-min Rain = 0
KOD1 180526Z 18009KT 15/04 A2986 RMK A01 T01490037  RH  047%=      5-min Rain = 0
KOD1 180527Z 17010KT 15/04 A2986 RMK A01 T01480037  RH  047%=      5-min Rain = 0
KOD1 180528Z 17010KT 15/04 A2986 RMK A01 T01490037  RH  047%=      5-min Rain = 0
KOD1 180529Z 17010KT 15/04 A2986 RMK A01 T01490036  RH  047%=      5-min Rain = 0
KOD1 180530Z 17011KT 15/04 A2985 RMK A01 T01490036  RH  047%=      5-min Rain = 0
KOD1 180531Z 17011G16KT 15/04 A2985 RMK A01 T01500036  RH  046%=      5-min Rain = 0
KOD1 180532Z 17011KT 15/04 A2985 RMK A01 T01510035  RH  046%=      5-min Rain = 0
KOD1 180533Z 17010KT 15/04 A2985 RMK A01 T01510035  RH  046%=      5-min Rain = 0
KOD1 180534Z 17010KT 15/04 A2985 RMK A01 T01500035  RH  046%=      5-min Rain = 0
KOD1 180535Z 17011KT 15/04 A2985 RMK A01 T01510035  RH  046%=      5-min Rain = 0
KOD1 180536Z 17010KT 15/04 A2985 RMK A01 T01510035  RH  046%=      5-min Rain = 0
KOD1 180537Z 17010KT 15/03 A2985 RMK A01 T01510034  RH  046%=      5-min Rain = 0
KOD1 180538Z 16010KT 15/03 A2985 RMK A01 T01500034  RH  046%=      5-min Rain = 0
KOD1 180539Z 16010KT 15/03 A2985 RMK A01 T01500034  RH  046%=      5-min Rain = 0
KOD1 180540Z 16010KT 15/03 A2985 RMK A01 T01500034  RH  046%=      5-min Rain = 0
KOD1 180541Z 16011KT 15/03 A2985 RMK A01 T01500034  RH  046%=      5-min Rain = 0
KOD1 180542Z 16012KT 15/03 A2985 RMK A01 T01500033  RH  045%=      5-min Rain = 0
KOD1 180543Z 16011KT 15/03 A2984 RMK A01 T01510033  RH  045%=      5-min Rain = 0
KOD1 180544Z 16013KT 15/03 A2984 RMK A01 T01510033  RH  045%=      5-min Rain = 0
KOD1 180545Z 16012KT 15/03 A2984 RMK A01 T01520032  RH  045%=      5-min Rain = 0
KOD1 180546Z 17012KT 15/03 A2984 RMK A01 T01530032  RH  044%=      5-min Rain = 0
KOD1 180547Z 17012KT 15/03 A2984 RMK A01 T01530032  RH  044%=      5-min Rain = 0
KOD1 180548Z 16012KT 15/03 A2984 RMK A01 T01530032  RH  044%=      5-min Rain = 0
KOD1 180549Z 16012KT 15/03 A2984 RMK A01 T01520031  RH  044%=      5-min Rain = 0
KOD1 180550Z 16012KT 15/03 A2984 RMK A01 T01530031  RH  044%=      5-min Rain = 0
KOD1 180551Z 16013KT 15/03 A2984 RMK A01 T01530031  RH  044%=      5-min Rain = 0
KOD1 180552Z 17012KT 15/03 A2984 RMK A01 T01530031  RH  044%=      5-min Rain = 0
KOD1 180553Z 17012KT 15/03 A2984 RMK A01 T01530031  RH  044%=      5-min Rain = 0
KOD1 180554Z 17012KT 15/03 A2985 RMK A01 T01530031  RH  044%=      5-min Rain = 0
KOD1 180555Z 17012KT 15/03 A2985 RMK A01 T01530030  RH  044%=      5-min Rain = 0
KOD1 180556Z 17010KT 15/03 A2985 RMK A01 T01530030  RH  044%=      5-min Rain = 0
KOD1 180557Z 17010KT 15/03 A2985 RMK A01 T01520031  RH  044%=      5-min Rain = 0
KOD1 180558Z 18011KT 15/03 A2985 RMK A01 T01510030  RH  044%=      5-min Rain = 0
KOD1 180559Z 18012KT 15/03 A2985 RMK A01 T01520030  RH  044%=      5-min Rain = 0
KOD1 180600Z 18011KT 15/03 A2985 RMK A01 T01520030  RH  044%=      5-min Rain = 0
KOD1 180601Z 18010KT 15/03 A2985 RMK A01 T01520030  RH  044%=      5-min Rain = 0
KOD1 180602Z 18010KT 15/03 A2985 RMK A01 T01510030  RH  044%=      5-min Rain = 0
KOD1 180603Z 18010KT 15/03 A2985 RMK A01 T01500030  RH  044%=      5-min Rain = 0
KOD1 180604Z 17009KT 15/03 A2985 RMK A01 T01490030  RH  045%=      5-min Rain = 0
KOD1 180605Z 18010KT 15/03 A2985 RMK A01 T01490029  RH  045%=      5-min Rain = 0
KOD1 180606Z 18010KT 15/03 A2985 RMK A01 T01490029  RH  044%=      5-min Rain = 0
KOD1 180607Z 18009KT 15/03 A2985 RMK A01 T01490029  RH  045%=      5-min Rain = 0
KOD1 180608Z 17010KT 15/03 A2985 RMK A01 T01480030  RH  045%=      5-min Rain = 0
KOD1 180609Z 17010KT 15/03 A2985 RMK A01 T01470029  RH  045%=      5-min Rain = 0
KOD1 180610Z 17010KT 15/03 A2985 RMK A01 T01470030  RH  045%=      5-min Rain = 0
KOD1 180611Z 17010KT 15/03 A2985 RMK A01 T01470030  RH  045%=      5-min Rain = 0
KOD1 180612Z 15010KT 15/03 A2984 RMK A01 T01470030  RH  045%=      5-min Rain = 0
KOD1 180613Z 16010KT 15/03 A2984 RMK A01 T01470030  RH  045%=      5-min Rain = 0
KOD1 180614Z 16011KT 15/03 A2984 RMK A01 T01460030  RH  046%=      5-min Rain = 0
KOD1 180615Z 15011KT 15/03 A2984 RMK A01 T01460030  RH  046%=      5-min Rain = 0
KOD1 180616Z 15011KT 15/03 A2984 RMK A01 T01460030  RH  046%=      5-min Rain = 0
KOD1 180617Z 15011KT 15/03 A2984 RMK A01 T01460030  RH  046%=      5-min Rain = 0
KOD1 180618Z 15011KT 15/03 A2984 RMK A01 T01460030  RH  046%=      5-min Rain = 0
KOD1 180619Z 15010G15KT 15/03 A2984 RMK A01 T01450030  RH  046%=      5-min Rain = 0
KOD1 180620Z 16013KT 15/03 A2984 RMK A01 T01450030  RH  046%=      5-min Rain = 0
KOD1 180621Z 16011KT 15/03 A2984 RMK A01 T01450030  RH  046%=      5-min Rain = 0
KOD1 180622Z 16012KT 14/03 A2984 RMK A01 T01440030  RH  046%=      5-min Rain = 0
KOD1 180623Z 16013KT 15/03 A2984 RMK A01 T01450029  RH  046%=      5-min Rain = 0
KOD1 180624Z 16012KT 15/03 A2983 RMK A01 T01460030  RH  046%=      5-min Rain = 0
KOD1 180625Z 15011KT 15/03 A2983 RMK A01 T01460030  RH  046%=      5-min Rain = 0
KOD1 180626Z 16011KT 15/03 A2983 RMK A01 T01450030  RH  046%=      5-min Rain = 0
KOD1 180627Z 15011KT 15/03 A2984 RMK A01 T01450030  RH  046%=      5-min Rain = 0
KOD1 180628Z 15011KT 15/03 A2984 RMK A01 T01450030  RH  046%=      5-min Rain = 0
KOD1 180629Z 16011KT 14/03 A2984 RMK A01 T01440030  RH  046%=      5-min Rain = 0
KOD1 180630Z 16011KT 14/03 A2984 RMK A01 T01430031  RH  047%=      5-min Rain = 0
KOD1 180631Z 16011KT 14/03 A2984 RMK A01 T01430031  RH  047%=      5-min Rain = 0
KOD1 180632Z 16011KT 14/03 A2984 RMK A01 T01420031  RH  047%=      5-min Rain = 0
KOD1 180633Z 16011KT 14/03 A2984 RMK A01 T01420031  RH  047%=      5-min Rain = 0
KOD1 180634Z 16010KT 14/03 A2984 RMK A01 T01420030  RH  047%=      5-min Rain = 0
KOD1 180635Z 17011KT 14/03 A2984 RMK A01 T01420031  RH  047%=      5-min Rain = 0
KOD1 180636Z 17010KT 14/03 A2984 RMK A01 T01410030  RH  047%=      5-min Rain = 0
KOD1 180637Z 17011KT 14/03 A2984 RMK A01 T01410030  RH  047%=      5-min Rain = 0
KOD1 180638Z 16010KT 14/03 A2984 RMK A01 T01410030  RH  047%=      5-min Rain = 0
KOD1 180639Z 16011KT 14/03 A2984 RMK A01 T01420030  RH  047%=      5-min Rain = 0
KOD1 180640Z 16011KT 14/03 A2984 RMK A01 T01420030  RH  047%=      5-min Rain = 0
KOD1 180641Z 16012KT 14/03 A2984 RMK A01 T01420030  RH  047%=      5-min Rain = 0
KOD1 180642Z 16012KT 14/03 A2983 RMK A01 T01410030  RH  047%=      5-min Rain = 0
KOD1 180643Z 16013KT 14/03 A2983 RMK A01 T01420030  RH  047%=      5-min Rain = 0
KOD1 180644Z 15015KT 14/03 A2983 RMK A01 T01430030  RH  046%=      5-min Rain = 0
KOD1 180645Z 15012KT 14/03 A2983 RMK A01 T01440030  RH  046%=      5-min Rain = 0
KOD1 180646Z 16011KT 14/03 A2983 RMK A01 T01430030  RH  046%=      5-min Rain = 0
KOD1 180647Z 15012KT 14/03 A2983 RMK A01 T01420031  RH  047%=      5-min Rain = 0
KOD1 180648Z 15011KT 14/03 A2983 RMK A01 T01420030  RH  047%=      5-min Rain = 0
KOD1 180649Z 15012G17KT 14/03 A2983 RMK A01 T01420030  RH  047%=      5-min Rain = 0
KOD1 180650Z 15010KT 14/03 A2983 RMK A01 T01430031  RH  047%=      5-min Rain = 0
KOD1 180651Z 15012KT 14/03 A2983 RMK A01 T01420032  RH  047%=      5-min Rain = 0
KOD1 180652Z 15012KT 14/03 A2983 RMK A01 T01420032  RH  048%=      5-min Rain = 0
KOD1 180653Z 15013KT 14/03 A2983 RMK A01 T01410032  RH  048%=      5-min Rain = 0
KOD1 180654Z 14014KT 14/03 A2983 RMK A01 T01420032  RH  048%=      5-min Rain = 0
KOD1 180655Z 15014KT 14/03 A2983 RMK A01 T01420032  RH  048%=      5-min Rain = 0
KOD1 180656Z 15013KT 14/03 A2982 RMK A01 T01420032  RH  048%=      5-min Rain = 0
KOD1 180657Z 15014KT 14/03 A2982 RMK A01 T01420032  RH  048%=      5-min Rain = 0
KOD1 180658Z 15013KT 14/03 A2982 RMK A01 T01420032  RH  048%=      5-min Rain = 0
KOD1 180659Z 15014KT 14/03 A2982 RMK A01 T01420032  RH  048%=      5-min Rain = 0
KOD1 180700Z 15013KT 14/03 A2982 RMK A01 T01410032  RH  048%=      5-min Rain = 0
KOD1 180701Z 15014KT 14/03 A2982 RMK A01 T01410032  RH  048%=      5-min Rain = 0
KOD1 180702Z 15014KT 14/03 A2982 RMK A01 T01420032  RH  047%=      5-min Rain = 0
KOD1 180703Z 15012KT 14/03 A2983 RMK A01 T01420032  RH  048%=      5-min Rain = 0
KOD1 180704Z 15014KT 14/03 A2983 RMK A01 T01410032  RH  048%=      5-min Rain = 0
KOD1 180705Z 15014KT 14/03 A2983 RMK A01 T01410032  RH  048%=      5-min Rain = 0
KOD1 180706Z 15013KT 14/03 A2983 RMK A01 T01410032  RH  048%=      5-min Rain = 0
KOD1 180707Z 15013KT 14/03 A2983 RMK A01 T01410032  RH  048%=      5-min Rain = 0
KOD1 180708Z 15013KT 14/03 A2983 RMK A01 T01400032  RH  048%=      5-min Rain = 0
KOD1 180709Z 15012KT 14/03 A2983 RMK A01 T01400031  RH  048%=      5-min Rain = 0
KOD1 180710Z 15013KT 14/03 A2983 RMK A01 T01410031  RH  048%=      5-min Rain = 0
KOD1 180711Z 15012KT 14/03 A2983 RMK A01 T01410032  RH  048%=      5-min Rain = 0
KOD1 180712Z 15013KT 14/03 A2983 RMK A01 T01400032  RH  048%=      5-min Rain = 0
KOD1 180713Z 15012KT 14/03 A2983 RMK A01 T01390032  RH  048%=      5-min Rain = 0
KOD1 180714Z 16011KT 14/03 A2983 RMK A01 T01390032  RH  048%=      5-min Rain = 0
KOD1 180715Z 16012KT 14/03 A2983 RMK A01 T01380032  RH  049%=      5-min Rain = 0
KOD1 180716Z 16012KT 14/03 A2983 RMK A01 T01380032  RH  049%=      5-min Rain = 0
KOD1 180717Z 16012KT 14/03 A2983 RMK A01 T01370031  RH  049%=      5-min Rain = 0
KOD1 180718Z 16012KT 14/03 A2983 RMK A01 T01370031  RH  049%=      5-min Rain = 0
KOD1 180719Z 16011KT 14/03 A2983 RMK A01 T01360031  RH  049%=      5-min Rain = 0
KOD1 180720Z 16011KT 14/03 A2983 RMK A01 T01360030  RH  049%=      5-min Rain = 0
KOD1 180721Z 16010KT 14/03 A2983 RMK A01 T01360030  RH  049%=      5-min Rain = 0
KOD1 180722Z 16010KT 14/03 A2983 RMK A01 T01350029  RH  049%=      5-min Rain = 0
KOD1 180723Z 16011KT 14/03 A2983 RMK A01 T01350029  RH  048%=      5-min Rain = 0
KOD1 180724Z 17012KT 14/03 A2984 RMK A01 T01360028  RH  048%=      5-min Rain = 0
KOD1 180725Z 17011KT 14/03 A2984 RMK A01 T01360028  RH  048%=      5-min Rain = 0
KOD1 180726Z 16011KT 14/03 A2984 RMK A01 T01360028  RH  048%=      5-min Rain = 0
KOD1 180727Z 17010KT 14/03 A2984 RMK A01 T01360028  RH  048%=      5-min Rain = 0
KOD1 180728Z 17011KT 14/03 A2984 RMK A01 T01350027  RH  048%=      5-min Rain = 0
KOD1 180729Z 17011KT 14/03 A2984 RMK A01 T01360026  RH  048%=      5-min Rain = 0
KOD1 180730Z 17010KT 14/03 A2984 RMK A01 T01370026  RH  047%=      5-min Rain = 0
KOD1 180731Z 17011KT 14/03 A2984 RMK A01 T01370026  RH  047%=      5-min Rain = 0
KOD1 180732Z 17010KT 14/03 A2984 RMK A01 T01360026  RH  048%=      5-min Rain = 0
KOD1 180733Z 17011KT 14/03 A2984 RMK A01 T01350026  RH  048%=      5-min Rain = 0
KOD1 180734Z 18011KT 13/03 A2984 RMK A01 T01340026  RH  048%=      5-min Rain = 0
KOD1 180735Z 18010KT 13/03 A2984 RMK A01 T01330026  RH  048%=      5-min Rain = 0
KOD1 180736Z 17009KT 13/03 A2984 RMK A01 T01330026  RH  048%=      5-min Rain = 0
KOD1 180737Z 17010KT 13/03 A2984 RMK A01 T01320026  RH  048%=      5-min Rain = 0
KOD1 180738Z 18011KT 13/03 A2984 RMK A01 T01330026  RH  048%=      5-min Rain = 0
KOD1 180739Z 17010KT 13/03 A2984 RMK A01 T01330026  RH  048%=      5-min Rain = 0
KOD1 180740Z 17010KT 13/03 A2984 RMK A01 T01330026  RH  048%=      5-min Rain = 0
KOD1 180741Z 17009KT 13/03 A2984 RMK A01 T01330026  RH  048%=      5-min Rain = 0
KOD1 180742Z 17009KT 13/03 A2984 RMK A01 T01310026  RH  049%=      5-min Rain = 0
KOD1 180743Z 17010KT 13/03 A2984 RMK A01 T01310026  RH  049%=      5-min Rain = 0
KOD1 180744Z 17010KT 13/03 A2984 RMK A01 T01310025  RH  049%=      5-min Rain = 0
KOD1 180745Z 17010KT 13/03 A2984 RMK A01 T01320025  RH  049%=      5-min Rain = 0
KOD1 180746Z 17009KT 13/03 A2984 RMK A01 T01310025  RH  049%=      5-min Rain = 0
KOD1 180747Z 17009KT 13/03 A2984 RMK A01 T01310025  RH  048%=      5-min Rain = 0
KOD1 180748Z 18009KT 13/03 A2984 RMK A01 T01310025  RH  048%=      5-min Rain = 0
KOD1 180749Z 18008KT 13/03 A2984 RMK A01 T01310025  RH  048%=      5-min Rain = 0
KOD1 180750Z 17008KT 13/02 A2984 RMK A01 T01300024  RH  049%=      5-min Rain = 0
KOD1 180751Z 17008KT 13/02 A2984 RMK A01 T01300024  RH  048%=      5-min Rain = 0
KOD1 180752Z 17008KT 13/02 A2984 RMK A01 T01310024  RH  048%=      5-min Rain = 0
KOD1 180753Z 17008KT 13/02 A2984 RMK A01 T01310024  RH  048%=      5-min Rain = 0
KOD1 180754Z 17009KT 13/02 A2984 RMK A01 T01310024  RH  048%=      5-min Rain = 0
KOD1 180755Z 17009KT 13/02 A2984 RMK A01 T01310024  RH  048%=      5-min Rain = 0
KOD1 180756Z 16009KT 13/02 A2984 RMK A01 T01310024  RH  048%=      5-min Rain = 0
KOD1 180757Z 16010KT 13/02 A2984 RMK A01 T01320024  RH  048%=      5-min Rain = 0
KOD1 180758Z 16009KT 13/02 A2984 RMK A01 T01320024  RH  048%=      5-min Rain = 0
KOD1 180759Z 16010KT 13/02 A2984 RMK A01 T01320024  RH  048%=      5-min Rain = 0
KOD1 180800Z 16009KT 13/02 A2983 RMK A01 T01320024  RH  048%=      5-min Rain = 0
KOD1 180801Z 16009KT 13/02 A2983 RMK A01 T01320023  RH  048%=      5-min Rain = 0
KOD1 180802Z 16009KT 13/02 A2983 RMK A01 T01320024  RH  048%=      5-min Rain = 0
KOD1 180803Z 16009KT 13/02 A2983 RMK A01 T01310024  RH  048%=      5-min Rain = 0
KOD1 180804Z 16008KT 13/02 A2983 RMK A01 T01300023  RH  048%=      5-min Rain = 0
KOD1 180805Z 16008KT 13/02 A2984 RMK A01 T01300023  RH  048%=      5-min Rain = 0
KOD1 180806Z 16008KT 13/02 A2984 RMK A01 T01300024  RH  048%=      5-min Rain = 0
KOD1 180807Z 16008KT 13/02 A2984 RMK A01 T01300024  RH  049%=      5-min Rain = 0
KOD1 180808Z 16009KT 13/02 A2984 RMK A01 T01300024  RH  048%=      5-min Rain = 0
KOD1 180809Z 16008KT 13/02 A2984 RMK A01 T01300024  RH  048%=      5-min Rain = 0
KOD1 180810Z 16009KT 13/02 A2984 RMK A01 T01300024  RH  049%=      5-min Rain = 0
KOD1 180811Z 16010KT 13/02 A2984 RMK A01 T01290024  RH  049%=      5-min Rain = 0
KOD1 180812Z 16009KT 13/02 A2984 RMK A01 T01300024  RH  048%=      5-min Rain = 0
KOD1 180813Z 16009KT 13/02 A2984 RMK A01 T01300024  RH  049%=      5-min Rain = 0
KOD1 180814Z 16010KT 13/02 A2984 RMK A01 T01300024  RH  049%=      5-min Rain = 0
KOD1 180815Z 16009KT 13/02 A2983 RMK A01 T01290024  RH  049%=      5-min Rain = 0
KOD1 180816Z 16009KT 13/02 A2983 RMK A01 T01290024  RH  049%=      5-min Rain = 0
KOD1 180817Z 16009KT 13/02 A2983 RMK A01 T01290024  RH  049%=      5-min Rain = 0
KOD1 180818Z 16008KT 13/02 A2983 RMK A01 T01290024  RH  049%=      5-min Rain = 0
KOD1 180819Z 16008KT 13/02 A2983 RMK A01 T01280024  RH  049%=      5-min Rain = 0
KOD1 180820Z 16008KT 13/02 A2983 RMK A01 T01280024  RH  049%=      5-min Rain = 0
KOD1 180821Z 16008KT 13/02 A2983 RMK A01 T01280024  RH  049%=      5-min Rain = 0
KOD1 180822Z 15008KT 13/03 A2983 RMK A01 T01280025  RH  049%=      5-min Rain = 0
KOD1 180823Z 16009KT 13/03 A2983 RMK A01 T01280025  RH  050%=      5-min Rain = 0
KOD1 180824Z 15008KT 13/03 A2983 RMK A01 T01270025  RH  050%=      5-min Rain = 0
KOD1 180825Z 15009KT 13/03 A2983 RMK A01 T01280025  RH  050%=      5-min Rain = 0
KOD1 180826Z 16008KT 13/03 A2983 RMK A01 T01280025  RH  050%=      5-min Rain = 0
KOD1 180827Z 15008KT 13/03 A2983 RMK A01 T01270025  RH  050%=      5-min Rain = 0
KOD1 180828Z 15008KT 13/03 A2983 RMK A01 T01270025  RH  050%=      5-min Rain = 0
KOD1 180829Z 16008KT 13/03 A2983 RMK A01 T01270025  RH  050%=      5-min Rain = 0
KOD1 180830Z 16009KT 13/03 A2983 RMK A01 T01270025  RH  050%=      5-min Rain = 0
KOD1 180831Z 16007KT 13/03 A2983 RMK A01 T01260025  RH  050%=      5-min Rain = 0
KOD1 180832Z 16008KT 13/03 A2983 RMK A01 T01260025  RH  050%=      5-min Rain = 0
KOD1 180833Z 16007KT 13/03 A2983 RMK A01 T01260025  RH  050%=      5-min Rain = 0
KOD1 180834Z 15007KT 13/03 A2983 RMK A01 T01250025  RH  051%=      5-min Rain = 0
KOD1 180835Z 15008KT 13/03 A2983 RMK A01 T01250026  RH  051%=      5-min Rain = 0
KOD1 180836Z 16008KT 13/03 A2983 RMK A01 T01250026  RH  051%=      5-min Rain = 0
KOD1 180837Z 16006KT 13/03 A2983 RMK A01 T01250026  RH  051%=      5-min Rain = 0
KOD1 180838Z 16007KT 12/03 A2983 RMK A01 T01230026  RH  051%=      5-min Rain = 0
KOD1 180839Z 16007KT 12/03 A2983 RMK A01 T01230026  RH  052%=      5-min Rain = 0
KOD1 180840Z 16007KT 12/03 A2983 RMK A01 T01220026  RH  052%=      5-min Rain = 0
KOD1 180841Z 16008KT 12/03 A2983 RMK A01 T01210026  RH  052%=      5-min Rain = 0
KOD1 180842Z 15007KT 12/03 A2983 RMK A01 T01210026  RH  052%=      5-min Rain = 0
KOD1 180843Z 15008KT 12/03 A2983 RMK A01 T01210027  RH  052%=      5-min Rain = 0
KOD1 180844Z 15008KT 12/03 A2983 RMK A01 T01200027  RH  053%=      5-min Rain = 0
KOD1 180845Z 15008KT 12/03 A2983 RMK A01 T01200027  RH  053%=      5-min Rain = 0
KOD1 180846Z 15008KT 12/03 A2983 RMK A01 T01200027  RH  053%=      5-min Rain = 0
KOD1 180847Z 16007KT 12/03 A2983 RMK A01 T01190027  RH  053%=      5-min Rain = 0
KOD1 180848Z 16008KT 12/03 A2983 RMK A01 T01190027  RH  053%=      5-min Rain = 0
KOD1 180849Z 16008KT 12/03 A2983 RMK A01 T01190027  RH  053%=      5-min Rain = 0
KOD1 180850Z 16008KT 12/03 A2983 RMK A01 T01200027  RH  053%=      5-min Rain = 0
KOD1 180851Z 16008KT 12/03 A2983 RMK A01 T01190026  RH  053%=      5-min Rain = 0
KOD1 180852Z 16008KT 12/03 A2983 RMK A01 T01190027  RH  053%=      5-min Rain = 0
KOD1 180853Z 16008KT 12/03 A2983 RMK A01 T01190027  RH  053%=      5-min Rain = 0
KOD1 180854Z 16008KT 12/03 A2983 RMK A01 T01190026  RH  053%=      5-min Rain = 0
KOD1 180855Z 16008KT 12/03 A2983 RMK A01 T01190027  RH  053%=      5-min Rain = 0
KOD1 180856Z 16007KT 12/03 A2983 RMK A01 T01180027  RH  053%=      5-min Rain = 0
KOD1 180857Z 16008KT 12/03 A2983 RMK A01 T01180027  RH  054%=      5-min Rain = 0
KOD1 180858Z 15008KT 12/03 A2983 RMK A01 T01180027  RH  054%=      5-min Rain = 0
KOD1 180859Z 15008KT 12/03 A2983 RMK A01 T01170027  RH  054%=      5-min Rain = 0
KOD1 180900Z 15008KT 12/03 A2982 RMK A01 T01180028  RH  054%=      5-min Rain = 0
KOD1 180901Z 15009KT 12/03 A2982 RMK A01 T01170028  RH  054%=      5-min Rain = 0
KOD1 180902Z 15010KT 12/03 A2982 RMK A01 T01180028  RH  054%=      5-min Rain = 0
KOD1 180903Z 15009KT 12/03 A2982 RMK A01 T01180028  RH  054%=      5-min Rain = 0
KOD1 180904Z 15009KT 12/03 A2982 RMK A01 T01190028  RH  054%=      5-min Rain = 0
KOD1 180905Z 15009KT 12/03 A2982 RMK A01 T01190028  RH  054%=      5-min Rain = 0
KOD1 180906Z 15009KT 12/03 A2982 RMK A01 T01180028  RH  054%=      5-min Rain = 0
KOD1 180907Z 14008KT 12/03 A2982 RMK A01 T01180028  RH  054%=      5-min Rain = 0
KOD1 180908Z 14008KT 12/03 A2982 RMK A01 T01180028  RH  054%=      5-min Rain = 0
KOD1 180909Z 14008KT 12/03 A2982 RMK A01 T01180028  RH  054%=      5-min Rain = 0
KOD1 180910Z 14009KT 12/03 A2982 RMK A01 T01180028  RH  054%=      5-min Rain = 0
KOD1 180911Z 14009KT 12/03 A2982 RMK A01 T01190029  RH  054%=      5-min Rain = 0
KOD1 180912Z 14009KT 12/03 A2982 RMK A01 T01190029  RH  054%=      5-min Rain = 0
KOD1 180913Z 14009KT 12/03 A2982 RMK A01 T01200029  RH  054%=      5-min Rain = 0
KOD1 180914Z 14009KT 12/03 A2982 RMK A01 T01200029  RH  054%=      5-min Rain = 0
KOD1 180915Z 14008KT 12/03 A2982 RMK A01 T01190029  RH  054%=      5-min Rain = 0
KOD1 180916Z 14009KT 12/03 A2982 RMK A01 T01190029  RH  054%=      5-min Rain = 0
KOD1 180917Z 14009KT 12/03 A2982 RMK A01 T01180029  RH  054%=      5-min Rain = 0
KOD1 180918Z 14009KT 12/03 A2982 RMK A01 T01190030  RH  054%=      5-min Rain = 0
KOD1 180919Z 14008KT 12/03 A2982 RMK A01 T01190030  RH  054%=      5-min Rain = 0
KOD1 180920Z 14008KT 12/03 A2982 RMK A01 T01180030  RH  055%=      5-min Rain = 0
KOD1 180921Z 14008KT 12/03 A2982 RMK A01 T01180030  RH  055%=      5-min Rain = 0
KOD1 180922Z 14008KT 12/03 A2982 RMK A01 T01170030  RH  055%=      5-min Rain = 0
KOD1 180923Z 14008KT 12/03 A2982 RMK A01 T01170030  RH  055%=      5-min Rain = 0
KOD1 180924Z 14009KT 12/03 A2982 RMK A01 T01170030  RH  055%=      5-min Rain = 0
KOD1 180925Z 14008KT 12/03 A2982 RMK A01 T01170031  RH  056%=      5-min Rain = 0
KOD1 180926Z 14008KT 12/03 A2982 RMK A01 T01150031  RH  056%=      5-min Rain = 0
KOD1 180927Z 14008KT 12/03 A2982 RMK A01 T01150031  RH  056%=      5-min Rain = 0
KOD1 180928Z 14008KT 11/03 A2982 RMK A01 T01140031  RH  056%=      5-min Rain = 0
KOD1 180929Z 14008KT 11/03 A2982 RMK A01 T01140031  RH  057%=      5-min Rain = 0
KOD1 180930Z 14008KT 11/03 A2982 RMK A01 T01140031  RH  057%=      5-min Rain = 0
KOD1 180931Z 14008KT 11/03 A2982 RMK A01 T01130031  RH  057%=      5-min Rain = 0
KOD1 180932Z 13008KT 11/03 A2982 RMK A01 T01140031  RH  057%=      5-min Rain = 0
KOD1 180933Z 13008KT 11/03 A2982 RMK A01 T01140031  RH  057%=      5-min Rain = 0
KOD1 180934Z 13007KT 11/03 A2982 RMK A01 T01130032  RH  057%=      5-min Rain = 0
KOD1 180935Z 13008KT 11/03 A2982 RMK A01 T01130032  RH  057%=      5-min Rain = 0
KOD1 180936Z 13008KT 11/03 A2982 RMK A01 T01120032  RH  058%=      5-min Rain = 0
KOD1 180937Z 13008KT 11/03 A2981 RMK A01 T01120032  RH  058%=      5-min Rain = 0
KOD1 180938Z 13008KT 11/03 A2981 RMK A01 T01120032  RH  058%=      5-min Rain = 0
KOD1 180939Z 13008KT 11/03 A2981 RMK A01 T01120032  RH  058%=      5-min Rain = 0
KOD1 180940Z 13007KT 11/03 A2981 RMK A01 T01110032  RH  058%=      5-min Rain = 0
KOD1 180941Z 13007KT 11/03 A2981 RMK A01 T01110033  RH  059%=      5-min Rain = 0
KOD1 180942Z 13008KT 11/03 A2981 RMK A01 T01110033  RH  059%=      5-min Rain = 0
KOD1 180943Z 13008KT 11/03 A2981 RMK A01 T01100033  RH  059%=      5-min Rain = 0
KOD1 180944Z 13009KT 11/03 A2981 RMK A01 T01100034  RH  059%=      5-min Rain = 0
KOD1 180945Z 13008KT 11/03 A2981 RMK A01 T01100034  RH  060%=      5-min Rain = 0
KOD1 180946Z 13008KT 11/03 A2981 RMK A01 T01100034  RH  060%=      5-min Rain = 0
KOD1 180947Z 13008KT 11/04 A2981 RMK A01 T01100035  RH  060%=      5-min Rain = 0
KOD1 180948Z 14008KT 11/04 A2982 RMK A01 T01100035  RH  060%=      5-min Rain = 0
KOD1 180949Z 13008KT 11/04 A2982 RMK A01 T01100035  RH  060%=      5-min Rain = 0
KOD1 180950Z 13008KT 11/04 A2982 RMK A01 T01090035  RH  060%=      5-min Rain = 0
KOD1 180951Z 13007KT 11/04 A2982 RMK A01 T01090035  RH  060%=      5-min Rain = 0
KOD1 180952Z 13007KT 11/04 A2981 RMK A01 T01080036  RH  061%=      5-min Rain = 0
KOD1 180953Z 13008KT 11/04 A2981 RMK A01 T01080036  RH  061%=      5-min Rain = 0
KOD1 180954Z 13008KT 11/04 A2982 RMK A01 T01080036  RH  061%=      5-min Rain = 0
KOD1 180955Z 13009KT 11/04 A2982 RMK A01 T01080036  RH  061%=      5-min Rain = 0
KOD1 180956Z 13007KT 11/04 A2981 RMK A01 T01080036  RH  061%=      5-min Rain = 0
KOD1 180957Z 13008KT 11/04 A2981 RMK A01 T01070036  RH  062%=      5-min Rain = 0
KOD1 180958Z 13008KT 11/04 A2981 RMK A01 T01070037  RH  062%=      5-min Rain = 0
KOD1 180959Z 13008KT 11/04 A2981 RMK A01 T01070037  RH  062%=      5-min Rain = 0
KOD1 181000Z 13009KT 11/04 A2981 RMK A01 T01070038  RH  062%=      5-min Rain = 0
KOD1 181001Z 13009KT 11/04 A2981 RMK A01 T01070038  RH  062%=      5-min Rain = 0
KOD1 181002Z 13008KT 11/04 A2981 RMK A01 T01060038  RH  063%=      5-min Rain = 0
KOD1 181003Z 13009KT 11/04 A2981 RMK A01 T01060038  RH  063%=      5-min Rain = 0
KOD1 181004Z 13009KT 11/04 A2981 RMK A01 T01060039  RH  063%=      5-min Rain = 0
KOD1 181005Z 13008KT 11/04 A2981 RMK A01 T01060039  RH  063%=      5-min Rain = 0
KOD1 181006Z 13009KT 11/04 A2981 RMK A01 T01060039  RH  063%=      5-min Rain = 0
KOD1 181007Z 13009KT 11/04 A2981 RMK A01 T01050040  RH  064%=      5-min Rain = 0
KOD1 181008Z 13008KT 11/04 A2981 RMK A01 T01050040  RH  064%=      5-min Rain = 0
KOD1 181009Z 13008KT 11/04 A2981 RMK A01 T01050040  RH  064%=      5-min Rain = 0
KOD1 181010Z 13008KT 11/04 A2981 RMK A01 T01050040  RH  064%=      5-min Rain = 0
KOD1 181011Z 13009KT 10/04 A2981 RMK A01 T01040040  RH  064%=      5-min Rain = 0
KOD1 181012Z 13010KT 11/04 A2981 RMK A01 T01050040  RH  064%=      5-min Rain = 0
KOD1 181013Z 13010KT 11/04 A2981 RMK A01 T01050040  RH  064%=      5-min Rain = 0
KOD1 181014Z 13010KT 11/04 A2981 RMK A01 T01050040  RH  064%=      5-min Rain = 0
KOD1 181015Z 13009KT 11/04 A2981 RMK A01 T01050040  RH  064%=      5-min Rain = 0
KOD1 181016Z 13008KT 11/04 A2981 RMK A01 T01050040  RH  064%=      5-min Rain = 0
KOD1 181017Z 13009KT 10/04 A2981 RMK A01 T01040040  RH  065%=      5-min Rain = 0
KOD1 181018Z 13009KT 10/04 A2981 RMK A01 T01040041  RH  065%=      5-min Rain = 0
KOD1 181019Z 13009KT 10/04 A2981 RMK A01 T01030040  RH  065%=      5-min Rain = 0
KOD1 181020Z 13010KT 10/04 A2981 RMK A01 T01030040  RH  065%=      5-min Rain = 0
KOD1 181021Z 13008KT 10/04 A2981 RMK A01 T01030040  RH  065%=      5-min Rain = 0
KOD1 181022Z 13010KT 10/04 A2981 RMK A01 T01030040  RH  065%=      5-min Rain = 0
KOD1 181023Z 14008KT 10/04 A2981 RMK A01 T01020040  RH  065%=      5-min Rain = 0
KOD1 181024Z 13008KT 10/04 A2981 RMK A01 T01020040  RH  065%=      5-min Rain = 0
KOD1 181025Z 13009KT 10/04 A2981 RMK A01 T01010040  RH  066%=      5-min Rain = 0
KOD1 181026Z 13009KT 10/04 A2981 RMK A01 T01010040  RH  066%=      5-min Rain = 0
KOD1 181027Z 13009KT 10/04 A2981 RMK A01 T01000040  RH  066%=      5-min Rain = 0
KOD1 181028Z 13009KT 10/04 A2981 RMK A01 T01010040  RH  066%=      5-min Rain = 0
KOD1 181029Z 13008KT 10/04 A2981 RMK A01 T01010040  RH  066%=      5-min Rain = 0
KOD1 181030Z 13009KT 10/04 A2981 RMK A01 T01010040  RH  066%=      5-min Rain = 0
KOD1 181031Z 13008KT 10/04 A2981 RMK A01 T01020040  RH  066%=      5-min Rain = 0
KOD1 181032Z 13009KT 10/04 A2981 RMK A01 T01020040  RH  066%=      5-min Rain = 0
KOD1 181033Z 13009KT 10/04 A2981 RMK A01 T01020040  RH  066%=      5-min Rain = 0
KOD1 181034Z 13009KT 10/04 A2981 RMK A01 T01010040  RH  066%=      5-min Rain = 0
KOD1 181035Z 13009KT 10/04 A2981 RMK A01 T01020041  RH  066%=      5-min Rain = 0
KOD1 181036Z 13009KT 10/04 A2982 RMK A01 T01020040  RH  066%=      5-min Rain = 0
KOD1 181037Z 13009KT 10/04 A2982 RMK A01 T01010040  RH  066%=      5-min Rain = 0
KOD1 181038Z 13008KT 10/04 A2982 RMK A01 T01010041  RH  066%=      5-min Rain = 0
KOD1 181039Z 14008KT 10/04 A2982 RMK A01 T01000040  RH  066%=      5-min Rain = 0
KOD1 181040Z 13009KT 10/04 A2982 RMK A01 T01000040  RH  066%=      5-min Rain = 0
KOD1 181041Z 13008KT 10/04 A2982 RMK A01 T01000040  RH  066%=      5-min Rain = 0
KOD1 181042Z 13009KT 10/04 A2981 RMK A01 T01000041  RH  066%=      5-min Rain = 0
KOD1 181043Z 13009KT 10/04 A2981 RMK A01 T01000040  RH  067%=      5-min Rain = 0
KOD1 181044Z 13009KT 10/04 A2981 RMK A01 T01000041  RH  067%=      5-min Rain = 0
KOD1 181045Z 13009KT 10/04 A2981 RMK A01 T01000041  RH  067%=      5-min Rain = 0
KOD1 181046Z 13009KT 10/04 A2981 RMK A01 T00990041  RH  067%=      5-min Rain = 0
KOD1 181047Z 13010KT 10/04 A2981 RMK A01 T00990041  RH  067%=      5-min Rain = 0
KOD1 181048Z 13009KT 10/04 A2981 RMK A01 T00990041  RH  067%=      5-min Rain = 0
KOD1 181049Z 13010KT 10/04 A2981 RMK A01 T00990041  RH  067%=      5-min Rain = 0
KOD1 181050Z 13008KT 10/04 A2981 RMK A01 T00990041  RH  067%=      5-min Rain = 0
KOD1 181051Z 13009KT 10/04 A2981 RMK A01 T00990041  RH  067%=      5-min Rain = 0
KOD1 181052Z 13008KT 10/04 A2981 RMK A01 T00990041  RH  067%=      5-min Rain = 0
KOD1 181053Z 13008KT 10/04 A2981 RMK A01 T00980041  RH  068%=      5-min Rain = 0
KOD1 181054Z 13009KT 10/04 A2981 RMK A01 T00980041  RH  068%=      5-min Rain = 0
KOD1 181055Z 13009KT 10/04 A2981 RMK A01 T00980041  RH  068%=      5-min Rain = 0
KOD1 181056Z 13008KT 10/04 A2981 RMK A01 T00980041  RH  068%=      5-min Rain = 0
KOD1 181057Z 13009KT 10/04 A2981 RMK A01 T00980041  RH  068%=      5-min Rain = 0
KOD1 181058Z 13009KT 10/04 A2981 RMK A01 T00980042  RH  068%=      5-min Rain = 0
KOD1 181059Z 13008KT 10/04 A2981 RMK A01 T00980041  RH  068%=      5-min Rain = 0
KOD1 181100Z 13009KT 10/04 A2981 RMK A01 T00980042  RH  068%=      5-min Rain = 0
KOD1 181101Z 13010KT 10/04 A2981 RMK A01 T00970042  RH  068%=      5-min Rain = 0
KOD1 181102Z 13010KT 10/04 A2981 RMK A01 T00980042  RH  068%=      5-min Rain = 0
KOD1 181103Z 13009KT 10/04 A2981 RMK A01 T00980042  RH  068%=      5-min Rain = 0
KOD1 181104Z 13009KT 10/04 A2981 RMK A01 T00970042  RH  068%=      5-min Rain = 0
KOD1 181105Z 13009KT 10/04 A2981 RMK A01 T00980042  RH  068%=      5-min Rain = 0
KOD1 181106Z 13008KT 10/04 A2981 RMK A01 T00980042  RH  068%=      5-min Rain = 0
KOD1 181107Z 13008KT 10/04 A2981 RMK A01 T00970042  RH  069%=      5-min Rain = 0
KOD1 181108Z 13009KT 10/04 A2981 RMK A01 T00970042  RH  069%=      5-min Rain = 0
KOD1 181109Z 13008KT 10/04 A2981 RMK A01 T00960043  RH  069%=      5-min Rain = 0
KOD1 181110Z 13009KT 10/04 A2981 RMK A01 T00970043  RH  069%=      5-min Rain = 0
KOD1 181111Z 13008KT 10/04 A2981 RMK A01 T00970043  RH  069%=      5-min Rain = 0
KOD1 181112Z 13008KT 10/04 A2981 RMK A01 T00970043  RH  069%=      5-min Rain = 0
KOD1 181113Z 13009KT 10/04 A2981 RMK A01 T00970043  RH  069%=      5-min Rain = 0
KOD1 181114Z 12008KT 10/04 A2981 RMK A01 T00970043  RH  069%=      5-min Rain = 0
KOD1 181115Z 12008KT 10/04 A2981 RMK A01 T00970043  RH  069%=      5-min Rain = 0
KOD1 181116Z 13008KT 10/04 A2981 RMK A01 T00970043  RH  069%=      5-min Rain = 0
KOD1 181117Z 12009KT 10/04 A2981 RMK A01 T00970043  RH  069%=      5-min Rain = 0
KOD1 181118Z 12008KT 10/04 A2981 RMK A01 T00970043  RH  069%=      5-min Rain = 0
KOD1 181119Z 13008KT 10/04 A2981 RMK A01 T00970044  RH  069%=      5-min Rain = 0
KOD1 181120Z 13008KT 10/04 A2981 RMK A01 T00970044  RH  069%=      5-min Rain = 0
KOD1 181121Z 13007KT 10/04 A2981 RMK A01 T00970043  RH  069%=      5-min Rain = 0
KOD1 181122Z 12007KT 10/04 A2981 RMK A01 T00970044  RH  070%=      5-min Rain = 0
KOD1 181123Z 12007KT 10/04 A2981 RMK A01 T00960044  RH  070%=      5-min Rain = 0
KOD1 181124Z 12007KT 10/04 A2981 RMK A01 T00960044  RH  070%=      5-min Rain = 0
KOD1 181125Z 13008KT 10/04 A2981 RMK A01 T00970044  RH  070%=      5-min Rain = 0
KOD1 181126Z 12008KT 10/04 A2981 RMK A01 T00960044  RH  070%=      5-min Rain = 0
KOD1 181127Z 12008KT 10/04 A2981 RMK A01 T00970044  RH  070%=      5-min Rain = 0
KOD1 181128Z 12008KT 10/04 A2981 RMK A01 T00960044  RH  070%=      5-min Rain = 0
KOD1 181129Z 12009KT 10/04 A298 RMK A01 T00960044  RH  070%=      5-min Rain = 0
KOD1 181130Z 12008KT 10/04 A298 RMK A01 T00960044  RH  070%=      5-min Rain = 0
KOD1 181131Z 12008KT 10/04 A298 RMK A01 T00960044  RH  070%=      5-min Rain = 0
KOD1 181132Z 13009KT 10/04 A2981 RMK A01 T00960044  RH  070%=      5-min Rain = 0
KOD1 181133Z 12009KT 10/04 A2981 RMK A01 T00950044  RH  070%=      5-min Rain = 0
KOD1 181134Z 12008KT 10/04 A298 RMK A01 T00960044  RH  070%=      5-min Rain = 0
KOD1 181135Z 12009KT 10/04 A2981 RMK A01 T00960044  RH  070%=      5-min Rain = 0
KOD1 181136Z 12009KT 10/04 A2981 RMK A01 T00950044  RH  070%=      5-min Rain = 0
KOD1 181137Z 12007KT 10/04 A2981 RMK A01 T00950044  RH  070%=      5-min Rain = 0
KOD1 181138Z 12009KT 10/04 A2981 RMK A01 T00950044  RH  071%=      5-min Rain = 0
KOD1 181139Z 12009KT 10/04 A2981 RMK A01 T00950044  RH  070%=      5-min Rain = 0
KOD1 181140Z 13010KT 10/04 A2981 RMK A01 T00950044  RH  070%=      5-min Rain = 0
KOD1 181141Z 12009KT 10/04 A2981 RMK A01 T00950044  RH  070%=      5-min Rain = 0
KOD1 181142Z 12008KT 10/04 A2981 RMK A01 T00950044  RH  070%=      5-min Rain = 0
KOD1 181143Z 12008KT 10/04 A2981 RMK A01 T00950044  RH  071%=      5-min Rain = 0
KOD1 181144Z 12008KT 10/04 A2981 RMK A01 T00950044  RH  071%=      5-min Rain = 0
KOD1 181145Z 12008KT 10/04 A2981 RMK A01 T00950044  RH  071%=      5-min Rain = 0
KOD1 181146Z 12007KT 09/04 A2981 RMK A01 T00940044  RH  071%=      5-min Rain = 0
KOD1 181147Z 12008KT 09/04 A2981 RMK A01 T00940044  RH  071%=      5-min Rain = 0
KOD1 181148Z 12007KT 09/04 A2981 RMK A01 T00930044  RH  071%=      5-min Rain = 0
KOD1 181149Z 12007KT 09/04 A2981 RMK A01 T00930044  RH  072%=      5-min Rain = 0
KOD1 181150Z 12007KT 09/04 A2981 RMK A01 T00920044  RH  072%=      5-min Rain = 0
KOD1 181151Z 12007KT 09/05 A2981 RMK A01 T00920045  RH  072%=      5-min Rain = 0
KOD1 181152Z 12009KT 09/04 A2981 RMK A01 T00910044  RH  072%=      5-min Rain = 0
KOD1 181153Z 12007KT 09/05 A2981 RMK A01 T00920045  RH  072%=      5-min Rain = 0
KOD1 181154Z 12006KT 09/04 A2981 RMK A01 T00920044  RH  072%=      5-min Rain = 0
KOD1 181155Z 12007KT 09/04 A2981 RMK A01 T00910044  RH  072%=      5-min Rain = 0
KOD1 181156Z 12006KT 09/05 A2981 RMK A01 T00910045  RH  073%=      5-min Rain = 0
KOD1 181157Z 12007KT 09/05 A2981 RMK A01 T00910045  RH  073%=      5-min Rain = 0
KOD1 181158Z 12006KT 09/05 A2981 RMK A01 T00910045  RH  073%=      5-min Rain = 0
KOD1 181159Z 12007KT 09/05 A2981 RMK A01 T00910045  RH  073%=      5-min Rain = 0
KOD1 181200Z 12007KT 09/05 A2981 RMK A01 T00910045  RH  073%=      5-min Rain = 0
KOD1 181201Z 12007KT 09/05 A2981 RMK A01 T00910045  RH  073%=      5-min Rain = 0
KOD1 181202Z 12006KT 09/05 A2981 RMK A01 T00910045  RH  073%=      5-min Rain = 0
KOD1 181203Z 12007KT 09/05 A2981 RMK A01 T00910046  RH  073%=      5-min Rain = 0
KOD1 181204Z 12005KT 09/05 A2981 RMK A01 T00910045  RH  073%=      5-min Rain = 0
KOD1 181205Z 12005KT 09/05 A2981 RMK A01 T00910045  RH  073%=      5-min Rain = 0
KOD1 181206Z 12006KT 09/05 A2981 RMK A01 T00910045  RH  073%=      5-min Rain = 0
KOD1 181207Z 13005KT 09/05 A2981 RMK A01 T00910046  RH  073%=      5-min Rain = 0
KOD1 181208Z 11004KT 09/05 A2981 RMK A01 T00910045  RH  073%=      5-min Rain = 0
KOD1 181209Z 11005KT 09/05 A2981 RMK A01 T00900045  RH  073%=      5-min Rain = 0
KOD1 181210Z 11005KT 09/05 A2981 RMK A01 T00890045  RH  074%=      5-min Rain = 0
KOD1 181211Z 11005KT 09/05 A2981 RMK A01 T00890045  RH  074%=      5-min Rain = 0
KOD1 181212Z 11006KT 09/05 A2981 RMK A01 T00880045  RH  074%=      5-min Rain = 0
KOD1 181213Z 11006KT 09/05 A2981 RMK A01 T00880045  RH  074%=      5-min Rain = 0
KOD1 181214Z 11005KT 09/05 A2981 RMK A01 T00870045  RH  075%=      5-min Rain = 0
KOD1 181215Z 11005KT 09/05 A2981 RMK A01 T00870045  RH  075%=      5-min Rain = 0
KOD1 181216Z 11006KT 09/05 A2981 RMK A01 T00870045  RH  075%=      5-min Rain = 0
KOD1 181217Z 11006KT 09/05 A2981 RMK A01 T00870045  RH  075%=      5-min Rain = 0
KOD1 181218Z 11006KT 09/05 A2981 RMK A01 T00880046  RH  075%=      5-min Rain = 0
KOD1 181219Z 12006KT 09/05 A2981 RMK A01 T00880045  RH  074%=      5-min Rain = 0
KOD1 181220Z 11007KT 09/05 A2981 RMK A01 T00890046  RH  075%=      5-min Rain = 0
KOD1 181221Z 11007KT 09/05 A2981 RMK A01 T00880045  RH  074%=      5-min Rain = 0
KOD1 181222Z 11007KT 09/05 A2981 RMK A01 T00870045  RH  075%=      5-min Rain = 0
KOD1 181223Z 11006KT 09/05 A2981 RMK A01 T00870045  RH  075%=      5-min Rain = 0
KOD1 181224Z 11006KT 09/05 A2981 RMK A01 T00860045  RH  075%=      5-min Rain = 0
KOD1 181225Z 11007KT 09/05 A2981 RMK A01 T00850045  RH  076%=      5-min Rain = 0
KOD1 181226Z 12007KT 09/05 A2981 RMK A01 T00850046  RH  076%=      5-min Rain = 0
KOD1 181227Z 11006KT 09/05 A2981 RMK A01 T00860046  RH  076%=      5-min Rain = 0
KOD1 181228Z 11005KT 09/05 A2981 RMK A01 T00850045  RH  076%=      5-min Rain = 0
KOD1 181229Z 11007KT 09/05 A2981 RMK A01 T00850045  RH  076%=      5-min Rain = 0
KOD1 181230Z 11007KT 08/05 A2981 RMK A01 T00840046  RH  077%=      5-min Rain = 0
KOD1 181231Z 12007KT 09/05 A2981 RMK A01 T00850046  RH  077%=      5-min Rain = 0
KOD1 181232Z 12006KT 09/05 A2981 RMK A01 T00850046  RH  076%=      5-min Rain = 0
KOD1 181233Z 12007KT 09/05 A2981 RMK A01 T00850046  RH  076%=      5-min Rain = 0
KOD1 181234Z 11006KT 09/05 A2981 RMK A01 T00850046  RH  077%=      5-min Rain = 0
KOD1 181235Z 11006KT 09/05 A2981 RMK A01 T00850046  RH  077%=      5-min Rain = 0
KOD1 181236Z 12008KT 09/05 A2981 RMK A01 T00850046  RH  077%=      5-min Rain = 0
KOD1 181237Z 11006KT 09/05 A2981 RMK A01 T00850046  RH  077%=      5-min Rain = 0
KOD1 181238Z 11006KT 09/05 A2981 RMK A01 T00850046  RH  077%=      5-min Rain = 0
KOD1 181239Z 11005KT 08/05 A2981 RMK A01 T00840046  RH  077%=      5-min Rain = 0
KOD1 181240Z 11005KT 08/05 A2981 RMK A01 T00840046  RH  077%=      5-min Rain = 0
KOD1 181241Z 11005KT 08/05 A2981 RMK A01 T00840046  RH  077%=      5-min Rain = 0
KOD1 181242Z 11006KT 08/05 A2981 RMK A01 T00830046  RH  077%=      5-min Rain = 0
KOD1 181243Z 10006KT 08/05 A2981 RMK A01 T00830047  RH  078%=      5-min Rain = 0
KOD1 181244Z 10005KT 08/05 A2981 RMK A01 T00830046  RH  078%=      5-min Rain = 0
KOD1 181245Z 10005KT 08/05 A2981 RMK A01 T00820046  RH  078%=      5-min Rain = 0
KOD1 181246Z 10005KT 08/05 A2981 RMK A01 T00820046  RH  078%=      5-min Rain = 0
KOD1 181247Z 11004KT 08/05 A2981 RMK A01 T00820047  RH  079%=      5-min Rain = 0
KOD1 181248Z 11004KT 08/05 A2982 RMK A01 T00820046  RH  078%=      5-min Rain = 0
KOD1 181249Z 11004KT 08/05 A2982 RMK A01 T00810046  RH  079%=      5-min Rain = 0
KOD1 181250Z 12004KT 08/05 A2982 RMK A01 T00820047  RH  079%=      5-min Rain = 0
KOD1 181251Z 12005KT 08/05 A2982 RMK A01 T00810047  RH  079%=      5-min Rain = 0
KOD1 181252Z 11006KT 08/05 A2982 RMK A01 T00820047  RH  079%=      5-min Rain = 0
KOD1 181253Z 11005KT 08/05 A2982 RMK A01 T00820047  RH  078%=      5-min Rain = 0
KOD1 181254Z 12005KT 08/05 A2982 RMK A01 T00830047  RH  078%=      5-min Rain = 0
KOD1 181255Z 12005KT 08/05 A2982 RMK A01 T00830048  RH  078%=      5-min Rain = 0
KOD1 181256Z 12006KT 08/05 A2982 RMK A01 T00830047  RH  078%=      5-min Rain = 0
KOD1 181257Z 12008KT 08/05 A2982 RMK A01 T00840049  RH  078%=      5-min Rain = 0
KOD1 181258Z 13007KT 09/05 A2982 RMK A01 T00850049  RH  078%=      5-min Rain = 0
KOD1 181259Z 12007KT 09/05 A2982 RMK A01 T00860048  RH  077%=      5-min Rain = 0
KOD1 181300Z 12006KT 09/05 A2982 RMK A01 T00870048  RH  077%=      5-min Rain = 0
KOD1 181301Z 12006KT 09/05 A2982 RMK A01 T00870048  RH  077%=      5-min Rain = 0
KOD1 181302Z 12006KT 09/05 A2981 RMK A01 T00870049  RH  077%=      5-min Rain = 0
KOD1 181303Z 12008KT 09/05 A2981 RMK A01 T00870048  RH  077%=      5-min Rain = 0
KOD1 181304Z 12007KT 09/05 A2981 RMK A01 T00870048  RH  076%=      5-min Rain = 0
KOD1 181305Z 12007KT 09/05 A2981 RMK A01 T00880049  RH  076%=      5-min Rain = 0
KOD1 181306Z 13007KT 09/05 A2981 RMK A01 T00880049  RH  077%=      5-min Rain = 0
KOD1 181307Z 13007KT 09/05 A2981 RMK A01 T00880049  RH  076%=      5-min Rain = 0
KOD1 181308Z 13008KT 09/05 A2981 RMK A01 T00890049  RH  076%=      5-min Rain = 0
KOD1 181309Z 12007KT 09/05 A2981 RMK A01 T00890049  RH  076%=      5-min Rain = 0
KOD1 181310Z 12006KT 09/05 A2981 RMK A01 T00890049  RH  076%=      5-min Rain = 0
KOD1 181311Z 12006KT 09/05 A2981 RMK A01 T00890049  RH  076%=      5-min Rain = 0
KOD1 181312Z 12006KT 09/05 A2981 RMK A01 T00890049  RH  076%=      5-min Rain = 0
KOD1 181313Z 13006KT 09/05 A2981 RMK A01 T00900050  RH  076%=      5-min Rain = 0
KOD1 181314Z 13006KT 09/05 A2981 RMK A01 T00910050  RH  076%=      5-min Rain = 0
KOD1 181315Z 12005KT 09/05 A2981 RMK A01 T00910050  RH  075%=      5-min Rain = 0
KOD1 181316Z 13007KT 09/05 A2981 RMK A01 T00920050  RH  075%=      5-min Rain = 0
KOD1 181317Z 12006KT 09/05 A2981 RMK A01 T00920050  RH  075%=      5-min Rain = 0
KOD1 181318Z 12006KT 09/05 A2981 RMK A01 T00930050  RH  075%=      5-min Rain = 0
KOD1 181319Z 13007KT 09/05 A2981 RMK A01 T00930050  RH  075%=      5-min Rain = 0
KOD1 181320Z 13006KT 09/05 A2981 RMK A01 T00940050  RH  074%=      5-min Rain = 0
KOD1 181321Z 13007KT 09/05 A2981 RMK A01 T00940051  RH  074%=      5-min Rain = 0
KOD1 181322Z 12006KT 10/05 A2981 RMK A01 T00950051  RH  074%=      5-min Rain = 0
KOD1 181323Z 12006KT 10/05 A2981 RMK A01 T00950051  RH  074%=      5-min Rain = 0
KOD1 181324Z 12007KT 10/05 A2981 RMK A01 T00960051  RH  074%=      5-min Rain = 0
KOD1 181325Z 12008KT 10/05 A2981 RMK A01 T00970051  RH  073%=      5-min Rain = 0
KOD1 181326Z 12007KT 10/05 A2981 RMK A01 T00970051  RH  073%=      5-min Rain = 0
KOD1 181327Z 13007KT 10/05 A2981 RMK A01 T00970051  RH  073%=      5-min Rain = 0
KOD1 181328Z 13008KT 10/05 A2981 RMK A01 T00980051  RH  073%=      5-min Rain = 0
KOD1 181329Z 13008KT 10/05 A2981 RMK A01 T00980052  RH  073%=      5-min Rain = 0
KOD1 181330Z 13008KT 10/05 A2981 RMK A01 T00990052  RH  072%=      5-min Rain = 0
KOD1 181331Z 13007KT 10/05 A2981 RMK A01 T01000052  RH  072%=      5-min Rain = 0
KOD1 181332Z 13007KT 10/05 A2981 RMK A01 T01010052  RH  072%=      5-min Rain = 0
KOD1 181333Z 13008KT 10/05 A2981 RMK A01 T01010053  RH  072%=      5-min Rain = 0
KOD1 181334Z 13008KT 10/05 A2981 RMK A01 T01020053  RH  071%=      5-min Rain = 0
KOD1 181335Z 13007KT 10/05 A2981 RMK A01 T01030053  RH  071%=      5-min Rain = 0
KOD1 181336Z 13008KT 10/05 A2981 RMK A01 T01040053  RH  071%=      5-min Rain = 0
KOD1 181337Z 13008KT 11/05 A2981 RMK A01 T01050054  RH  071%=      5-min Rain = 0
KOD1 181338Z 13007KT 11/05 A2981 RMK A01 T01050054  RH  070%=      5-min Rain = 0
KOD1 181339Z 14007KT 11/05 A2981 RMK A01 T01070054  RH  070%=      5-min Rain = 0
KOD1 181340Z 14007KT 11/06 A2981 RMK A01 T01080055  RH  070%=      5-min Rain = 0
KOD1 181341Z 14005KT 11/06 A2982 RMK A01 T01090055  RH  069%=      5-min Rain = 0
KOD1 181342Z 15007KT 11/06 A2982 RMK A01 T01100055  RH  069%=      5-min Rain = 0
KOD1 181343Z 15008KT 11/06 A2982 RMK A01 T01110055  RH  068%=      5-min Rain = 0
KOD1 181344Z 14006KT 11/06 A2982 RMK A01 T01110055  RH  068%=      5-min Rain = 0
KOD1 181345Z 15008KT 11/06 A2982 RMK A01 T01120055  RH  068%=      5-min Rain = 0
KOD1 181346Z 15006KT 11/06 A2982 RMK A01 T01120055  RH  068%=      5-min Rain = 0
KOD1 181347Z 15005KT 11/06 A2982 RMK A01 T01130056  RH  068%=      5-min Rain = 0
KOD1 181348Z 15005KT 11/06 A2982 RMK A01 T01130056  RH  068%=      5-min Rain = 0
KOD1 181349Z 15006KT 12/06 A2982 RMK A01 T01150057  RH  068%=      5-min Rain = 0
KOD1 181350Z 14007KT 12/06 A2982 RMK A01 T01160057  RH  067%=      5-min Rain = 0
KOD1 181351Z 15007KT 12/06 A2982 RMK A01 T01170057  RH  067%=      5-min Rain = 0
KOD1 181352Z 15006KT 12/06 A2982 RMK A01 T01170057  RH  066%=      5-min Rain = 0
KOD1 181353Z 15006KT 12/06 A2982 RMK A01 T01180057  RH  066%=      5-min Rain = 0
KOD1 181354Z 14007KT 12/06 A2982 RMK A01 T01190057  RH  066%=      5-min Rain = 0
KOD1 181355Z 14005KT 12/06 A2982 RMK A01 T01190057  RH  066%=      5-min Rain = 0
KOD1 181356Z 15006KT 12/06 A2982 RMK A01 T01200057  RH  066%=      5-min Rain = 0
KOD1 181357Z 14005KT 12/06 A2982 RMK A01 T01200057  RH  066%=      5-min Rain = 0
KOD1 181358Z 15007KT 12/06 A2983 RMK A01 T01200057  RH  065%=      5-min Rain = 0
KOD1 181359Z 15006KT 12/06 A2983 RMK A01 T01210057  RH  065%=      5-min Rain = 0
KOD1 181400Z 15006KT 12/06 A2983 RMK A01 T01210057  RH  065%=      5-min Rain = 0
KOD1 181401Z 15006KT 12/06 A2983 RMK A01 T01220057  RH  064%=      5-min Rain = 0
KOD1 181402Z 15007KT 12/06 A2983 RMK A01 T01230057  RH  064%=      5-min Rain = 0
KOD1 181403Z 15008KT 12/06 A2983 RMK A01 T01240057  RH  064%=      5-min Rain = 0
KOD1 181404Z 14006KT 12/06 A2983 RMK A01 T01240057  RH  064%=      5-min Rain = 0
KOD1 181405Z 14007KT 13/06 A2983 RMK A01 T01250058  RH  064%=      5-min Rain = 0
KOD1 181406Z 14007KT 13/06 A2983 RMK A01 T01260058  RH  063%=      5-min Rain = 0
KOD1 181407Z 14006KT 13/06 A2983 RMK A01 T01270058  RH  063%=      5-min Rain = 0
KOD1 181408Z 14007KT 13/06 A2983 RMK A01 T01280059  RH  063%=      5-min Rain = 0
KOD1 181409Z 15007KT 13/06 A2983 RMK A01 T01290059  RH  062%=      5-min Rain = 0
KOD1 181410Z 14008KT 13/06 A2982 RMK A01 T01290058  RH  062%=      5-min Rain = 0
KOD1 181411Z 14007KT 13/06 A2982 RMK A01 T01290059  RH  062%=      5-min Rain = 0
KOD1 181412Z 15008KT 13/06 A2982 RMK A01 T01290059  RH  062%=      5-min Rain = 0
KOD1 181413Z 15008KT 13/06 A2982 RMK A01 T01290058  RH  062%=      5-min Rain = 0
KOD1 181414Z 15008KT 13/06 A2982 RMK A01 T01290059  RH  062%=      5-min Rain = 0
KOD1 181415Z 14009KT 13/06 A2982 RMK A01 T01290058  RH  062%=      5-min Rain = 0
KOD1 181416Z 14010KT 13/06 A2982 RMK A01 T01290058  RH  062%=      5-min Rain = 0
KOD1 181417Z 15009KT 13/06 A2982 RMK A01 T01300059  RH  062%=      5-min Rain = 0
KOD1 181418Z 15008KT 13/06 A2982 RMK A01 T01310059  RH  062%=      5-min Rain = 0
KOD1 181419Z 15009KT 13/06 A2982 RMK A01 T01310059  RH  062%=      5-min Rain = 0
KOD1 181420Z 15009KT 13/06 A2982 RMK A01 T01320059  RH  061%=      5-min Rain = 0
KOD1 181421Z 15007KT 13/06 A2982 RMK A01 T01330061  RH  061%=      5-min Rain = 0
KOD1 181422Z 15009KT 14/06 A2982 RMK A01 T01360062  RH  061%=      5-min Rain = 0
KOD1 181423Z 15010KT 14/06 A2982 RMK A01 T01360059  RH  060%=      5-min Rain = 0
KOD1 181424Z 15009KT 14/06 A2982 RMK A01 T01360060  RH  060%=      5-min Rain = 0
KOD1 181425Z 15011KT 14/06 A2982 RMK A01 T01370060  RH  059%=      5-min Rain = 0
KOD1 181426Z 15012KT 14/06 A2982 RMK A01 T01380059  RH  059%=      5-min Rain = 0
KOD1 181427Z 15011KT 14/06 A2982 RMK A01 T01380058  RH  058%=      5-min Rain = 0
KOD1 181428Z 15012KT 14/06 A2982 RMK A01 T01380058  RH  058%=      5-min Rain = 0
KOD1 181429Z 15011KT 14/06 A2982 RMK A01 T01390059  RH  059%=      5-min Rain = 0
KOD1 181430Z 15011KT 14/06 A2982 RMK A01 T01400059  RH  058%=      5-min Rain = 0
KOD1 181431Z 15011KT 14/06 A2982 RMK A01 T01390058  RH  058%=      5-min Rain = 0
KOD1 181432Z 15010KT 14/06 A2982 RMK A01 T01410060  RH  058%=      5-min Rain = 0
KOD1 181433Z 15010KT 14/06 A2982 RMK A01 T01420059  RH  057%=      5-min Rain = 0
KOD1 181434Z 14011KT 14/06 A2982 RMK A01 T01420059  RH  057%=      5-min Rain = 0
KOD1 181435Z 15010KT 14/06 A2982 RMK A01 T01410059  RH  058%=      5-min Rain = 0
KOD1 181436Z 14009KT 14/06 A2982 RMK A01 T01430060  RH  058%=      5-min Rain = 0
KOD1 181437Z 14011KT 14/06 A2982 RMK A01 T01440060  RH  057%=      5-min Rain = 0
KOD1 181438Z 14010KT 14/06 A2982 RMK A01 T01440059  RH  057%=      5-min Rain = 0
KOD1 181439Z 15009KT 14/06 A2982 RMK A01 T01440059  RH  057%=      5-min Rain = 0
KOD1 181440Z 15009KT 15/06 A2982 RMK A01 T01450061  RH  057%=      5-min Rain = 0
KOD1 181441Z 15007KT 15/06 A2982 RMK A01 T01470061  RH  056%=      5-min Rain = 0
KOD1 181442Z 16010KT 15/06 A2982 RMK A01 T01480061  RH  056%=      5-min Rain = 0
KOD1 181443Z 15008KT 15/06 A2982 RMK A01 T01470060  RH  056%=      5-min Rain = 0
KOD1 181444Z 15009KT 15/06 A2982 RMK A01 T01470060  RH  056%=      5-min Rain = 0
KOD1 181445Z 16009KT 15/06 A2982 RMK A01 T01470060  RH  056%=      5-min Rain = 0
KOD1 181446Z 17010KT 15/06 A2982 RMK A01 T01480060  RH  056%=      5-min Rain = 0
KOD1 181447Z 16007KT 15/06 A2982 RMK A01 T01490061  RH  056%=      5-min Rain = 0
KOD1 181448Z 15009KT 15/06 A2982 RMK A01 T01500060  RH  055%=      5-min Rain = 0
KOD1 181449Z 15009KT 15/06 A2982 RMK A01 T01500060  RH  055%=      5-min Rain = 0
KOD1 181450Z 15007KT 15/06 A2982 RMK A01 T01500060  RH  055%=      5-min Rain = 0
KOD1 181451Z 15007KT 15/06 A2982 RMK A01 T01510062  RH  055%=      5-min Rain = 0
KOD1 181452Z 15007KT 15/06 A2982 RMK A01 T01530063  RH  055%=      5-min Rain = 0
KOD1 181453Z 15008KT 16/06 A2982 RMK A01 T01550063  RH  054%=      5-min Rain = 0
KOD1 181454Z 16009KT 16/06 A2982 RMK A01 T01550061  RH  054%=      5-min Rain = 0
KOD1 181455Z 15008KT 16/06 A2982 RMK A01 T01550061  RH  054%=      5-min Rain = 0
KOD1 181456Z 15009KT 15/06 A2982 RMK A01 T01540060  RH  053%=      5-min Rain = 0
KOD1 181457Z 14009KT 16/06 A2982 RMK A01 T01550062  RH  054%=      5-min Rain = 0
KOD1 181458Z 15009KT 16/06 A2982 RMK A01 T01550062  RH  054%=      5-min Rain = 0
KOD1 181459Z 14008KT 16/06 A2982 RMK A01 T01560062  RH  054%=      5-min Rain = 0
KOD1 181500Z 15009KT 16/06 A2982 RMK A01 T01560061  RH  053%=      5-min Rain = 0
KOD1 181501Z 16009KT 16/06 A2982 RMK A01 T01560061  RH  053%=      5-min Rain = 0
KOD1 181502Z 17009KT 16/06 A2982 RMK A01 T01550062  RH  054%=      5-min Rain = 0
KOD1 181503Z 16008KT 16/06 A2982 RMK A01 T01560063  RH  054%=      5-min Rain = 0
KOD1 181504Z 14007KT 16/06 A2982 RMK A01 T01580063  RH  053%=      5-min Rain = 0
KOD1 181505Z 14009KT 16/06 A2982 RMK A01 T01590063  RH  053%=      5-min Rain = 0
KOD1 181506Z 14010KT 16/06 A2982 RMK A01 T01600062  RH  052%=      5-min Rain = 0
KOD1 181507Z 15011KT 16/06 A2982 RMK A01 T01600061  RH  052%=      5-min Rain = 0
KOD1 181508Z 15010KT 16/06 A2982 RMK A01 T01610061  RH  052%=      5-min Rain = 0
KOD1 181509Z 16010KT 16/06 A2982 RMK A01 T01610062  RH  052%=      5-min Rain = 0
KOD1 181510Z 15008KT 16/06 A2982 RMK A01 T01620063  RH  052%=      5-min Rain = 0
KOD1 181511Z 15008KT 16/06 A2982 RMK A01 T01640063  RH  051%=      5-min Rain = 0
KOD1 181512Z 16007KT 17/06 A2982 RMK A01 T01650063  RH  051%=      5-min Rain = 0
KOD1 181513Z 16007KT 17/06 A2982 RMK A01 T01670064  RH  051%=      5-min Rain = 0
KOD1 181514Z 14009KT 17/07 A2982 RMK A01 T01680065  RH  050%=      5-min Rain = 0
KOD1 181515Z 15008KT 17/06 A2981 RMK A01 T01670063  RH  050%=      5-min Rain = 0
KOD1 181516Z 15009KT 17/06 A2981 RMK A01 T01660064  RH  051%=      5-min Rain = 0
KOD1 181517Z 15007KT 17/07 A2981 RMK A01 T01670065  RH  051%=      5-min Rain = 0
KOD1 181518Z 14007KT 17/07 A2981 RMK A01 T01700065  RH  050%=      5-min Rain = 0
KOD1 181519Z 15010KT 17/06 A2981 RMK A01 T01710064  RH  049%=      5-min Rain = 0
KOD1 181520Z 15011KT 17/06 A2981 RMK A01 T01690064  RH  050%=      5-min Rain = 0
KOD1 181521Z 15010KT 17/06 A2981 RMK A01 T01680064  RH  050%=      5-min Rain = 0
KOD1 181522Z 15010KT 17/06 A2981 RMK A01 T01690064  RH  050%=      5-min Rain = 0
KOD1 181523Z 15010KT 17/06 A2981 RMK A01 T01690064  RH  050%=      5-min Rain = 0
KOD1 181524Z 16010KT 17/06 A2981 RMK A01 T01680064  RH  050%=      5-min Rain = 0
KOD1 181525Z 15009KT 17/07 A2981 RMK A01 T01710066  RH  050%=      5-min Rain = 0
KOD1 181526Z 15010KT 17/07 A2981 RMK A01 T01740066  RH  049%=      5-min Rain = 0
KOD1 181527Z 15008KT 18/07 A2981 RMK A01 T01750066  RH  049%=      5-min Rain = 0
KOD1 181528Z 16010KT 18/06 A2981 RMK A01 T01760064  RH  048%=      5-min Rain = 0
KOD1 181529Z 16009KT 17/06 A2981 RMK A01 T01740064  RH  048%=      5-min Rain = 0
KOD1 181530Z 14007KT 17/07 A2981 RMK A01 T01740066  RH  049%=      5-min Rain = 0
KOD1 181531Z 16011KT 18/07 A2981 RMK A01 T01770067  RH  048%=      5-min Rain = 0
KOD1 181532Z 16009KT 18/07 A2981 RMK A01 T01770066  RH  048%=      5-min Rain = 0
KOD1 181533Z 16010KT 18/07 A2981 RMK A01 T01760065  RH  048%=      5-min Rain = 0
KOD1 181534Z 15011KT 18/07 A2981 RMK A01 T01750065  RH  048%=      5-min Rain = 0
KOD1 181535Z 15010KT 18/07 A2981 RMK A01 T01750065  RH  048%=      5-min Rain = 0
KOD1 181536Z 16009KT 18/07 A298 RMK A01 T01770067  RH  048%=      5-min Rain = 0
KOD1 181537Z 15008KT 18/07 A298 RMK A01 T01780066  RH  048%=      5-min Rain = 0
KOD1 181538Z 15009KT 18/07 A298 RMK A01 T01790067  RH  048%=      5-min Rain = 0
KOD1 181539Z 17011KT 18/07 A298 RMK A01 T01800066  RH  047%=      5-min Rain = 0
KOD1 181540Z 17011KT 18/07 A298 RMK A01 T01790066  RH  048%=      5-min Rain = 0
KOD1 181541Z 17012KT 18/07 A298 RMK A01 T01800068  RH  048%=      5-min Rain = 0
KOD1 181542Z 15010KT 18/07 A298 RMK A01 T01800067  RH  047%=      5-min Rain = 0
KOD1 181543Z 16009KT 18/07 A298 RMK A01 T01790066  RH  048%=      5-min Rain = 0
KOD1 181544Z 16008KT 18/07 A298 RMK A01 T01790067  RH  048%=      5-min Rain = 0
KOD1 181545Z 16009KT 18/07 A298 RMK A01 T01800068  RH  048%=      5-min Rain = 0
KOD1 181546Z 15009KT 18/07 A298 RMK A01 T01830070  RH  048%=      5-min Rain = 0
KOD1 181547Z 16011KT 19/07 A298 RMK A01 T01870070  RH  047%=      5-min Rain = 0
KOD1 181548Z 17010KT 19/07 A298 RMK A01 T01880069  RH  046%=      5-min Rain = 0
KOD1 181549Z 17010KT 19/07 A298 RMK A01 T01870068  RH  046%=      5-min Rain = 0
KOD1 181550Z 15009KT 19/07 A298 RMK A01 T01870070  RH  046%=      5-min Rain = 0
KOD1 181551Z 17012KT 19/07 A298 RMK A01 T01890069  RH  046%=      5-min Rain = 0
KOD1 181552Z 17011KT 19/07 A298 RMK A01 T01870068  RH  046%=      5-min Rain = 0
KOD1 181553Z 16010KT 19/07 A298 RMK A01 T01860069  RH  046%=      5-min Rain = 0
KOD1 181554Z 16011KT 19/07 A298 RMK A01 T01860070  RH  047%=      5-min Rain = 0
KOD1 181555Z 16012KT 19/07 A298 RMK A01 T01890071  RH  046%=      5-min Rain = 0
KOD1 181556Z 15009KT 19/07 A298 RMK A01 T01890070  RH  046%=      5-min Rain = 0
KOD1 181557Z 15010KT 19/07 A298 RMK A01 T01910071  RH  046%=      5-min Rain = 0
KOD1 181558Z 14010KT 19/07 A298 RMK A01 T01900071  RH  046%=      5-min Rain = 0
KOD1 181559Z 15010KT 19/07 A298 RMK A01 T01920073  RH  046%=      5-min Rain = 0
KOD1 181600Z 16011KT 19/07 A298 RMK A01 T01940071  RH  045%=      5-min Rain = 0
KOD1 181601Z 14013KT 19/07 A2979 RMK A01 T01930072  RH  045%=      5-min Rain = 0
KOD1 181602Z 15012KT 19/07 A2979 RMK A01 T01930072  RH  045%=      5-min Rain = 0
KOD1 181603Z 16010KT 20/07 A2979 RMK A01 T01950072  RH  045%=      5-min Rain = 0
KOD1 181604Z 14009KT 20/07 A2979 RMK A01 T01980073  RH  045%=      5-min Rain = 0
KOD1 181605Z 14009KT 20/07 A2979 RMK A01 T01990074  RH  044%=      5-min Rain = 0
KOD1 181606Z 14012KT 20/07 A2979 RMK A01 T01990073  RH  044%=      5-min Rain = 0
KOD1 181607Z 15010KT 20/07 A2979 RMK A01 T01970073  RH  044%=      5-min Rain = 0
KOD1 181608Z 15010KT 20/07 A2979 RMK A01 T01970072  RH  044%=      5-min Rain = 0
KOD1 181609Z 16010KT 20/07 A2979 RMK A01 T01970073  RH  045%=      5-min Rain = 0
KOD1 181610Z 16008KT 20/08 A2979 RMK A01 T01990077  RH  045%=      5-min Rain = 0
KOD1 181611Z 15012KT 20/08 A2979 RMK A01 T02030075  RH  044%=      5-min Rain = 0
KOD1 181612Z 15011KT 20/08 A2979 RMK A01 T02020075  RH  044%=      5-min Rain = 0
KOD1 181613Z 14010KT 20/08 A2979 RMK A01 T02020075  RH  044%=      5-min Rain = 0
KOD1 181614Z 14011KT 20/08 A2979 RMK A01 T02020076  RH  044%=      5-min Rain = 0
KOD1 181615Z 16011KT 20/07 A2979 RMK A01 T02030074  RH  043%=      5-min Rain = 0
KOD1 181616Z 16011KT 20/07 A2979 RMK A01 T02010074  RH  044%=      5-min Rain = 0
KOD1 181617Z 17012KT 20/08 A2979 RMK A01 T02030075  RH  043%=      5-min Rain = 0
KOD1 181618Z 14011KT 20/08 A2979 RMK A01 T02040076  RH  043%=      5-min Rain = 0
KOD1 181619Z 14010KT 20/07 A2979 RMK A01 T02040074  RH  043%=      5-min Rain = 0
KOD1 181620Z 14011KT 20/08 A2979 RMK A01 T02040076  RH  043%=      5-min Rain = 0
KOD1 181621Z 15013KT 21/08 A2979 RMK A01 T02050077  RH  044%=      5-min Rain = 0
KOD1 181622Z 15013KT 20/08 A2979 RMK A01 T02040075  RH  043%=      5-min Rain = 0
KOD1 181623Z 16010KT 20/08 A2978 RMK A01 T02030076  RH  044%=      5-min Rain = 0
KOD1 181624Z 15011KT 21/08 A2978 RMK A01 T02060077  RH  043%=      5-min Rain = 0
KOD1 181625Z 15012KT 21/08 A2978 RMK A01 T02080077  RH  043%=      5-min Rain = 0
KOD1 181626Z 17011KT 21/08 A2978 RMK A01 T02070079  RH  043%=      5-min Rain = 0
KOD1 181627Z 15011KT 21/08 A2978 RMK A01 T02090079  RH  043%=      5-min Rain = 0
KOD1 181628Z 16010KT 21/08 A2978 RMK A01 T02090077  RH  042%=      5-min Rain = 0
KOD1 181629Z 14009KT 21/08 A2978 RMK A01 T02120079  RH  042%=      5-min Rain = 0
KOD1 181630Z 15010KT 21/08 A2978 RMK A01 T02110078  RH  042%=      5-min Rain = 0
KOD1 181631Z 16014KT 21/08 A2978 RMK A01 T02120080  RH  043%=      5-min Rain = 0
KOD1 181632Z 16012KT 21/08 A2978 RMK A01 T02120079  RH  042%=      5-min Rain = 0
KOD1 181633Z 17010KT 21/08 A2978 RMK A01 T02120079  RH  042%=      5-min Rain = 0
KOD1 181634Z 17010KT 22/08 A2978 RMK A01 T02160081  RH  042%=      5-min Rain = 0
KOD1 181635Z 17011KT 22/08 A2978 RMK A01 T02180080  RH  041%=      5-min Rain = 0
KOD1 181636Z 16012KT 22/08 A2978 RMK A01 T02170080  RH  041%=      5-min Rain = 0
KOD1 181637Z 16012KT 22/08 A2978 RMK A01 T02150079  RH  042%=      5-min Rain = 0
KOD1 181638Z 15012KT 22/08 A2977 RMK A01 T02150081  RH  042%=      5-min Rain = 0
KOD1 181639Z 15013KT 22/08 A2977 RMK A01 T02150080  RH  042%=      5-min Rain = 0
KOD1 181640Z 15011KT 22/08 A2977 RMK A01 T02170083  RH  042%=      5-min Rain = 0
KOD1 181641Z 16012KT 22/08 A2977 RMK A01 T02190083  RH  042%=      5-min Rain = 0
KOD1 181642Z 15013KT 22/08 A2977 RMK A01 T02190082  RH  041%=      5-min Rain = 0
KOD1 181643Z 17011KT 22/08 A2977 RMK A01 T02180081  RH  041%=      5-min Rain = 0
KOD1 181644Z 15010KT 22/08 A2977 RMK A01 T02180082  RH  042%=      5-min Rain = 0
KOD1 181645Z 14012KT 22/08 A2977 RMK A01 T02200082  RH  041%=      5-min Rain = 0
KOD1 181646Z 14013KT 22/08 A2977 RMK A01 T02200082  RH  041%=      5-min Rain = 0
KOD1 181647Z 15011KT 22/08 A2977 RMK A01 T02200082  RH  041%=      5-min Rain = 0
KOD1 181648Z 15012KT 22/08 A2977 RMK A01 T02190083  RH  041%=      5-min Rain = 0
KOD1 181649Z 17013KT 22/08 A2977 RMK A01 T02200082  RH  041%=      5-min Rain = 0
KOD1 181650Z 15011KT 22/08 A2977 RMK A01 T02180082  RH  042%=      5-min Rain = 0
KOD1 181651Z 15010KT 22/08 A2977 RMK A01 T02190082  RH  041%=      5-min Rain = 0
KOD1 181652Z 15013KT 22/08 A2977 RMK A01 T02210084  RH  041%=      5-min Rain = 0
KOD1 181653Z 17012KT 22/08 A2977 RMK A01 T02200083  RH  041%=      5-min Rain = 0
KOD1 181654Z 17011KT 22/09 A2977 RMK A01 T02210085  RH  042%=      5-min Rain = 0
KOD1 181655Z 16012KT 22/09 A2977 RMK A01 T02240087  RH  041%=      5-min Rain = 0
KOD1 181656Z 15011KT 23/09 A2977 RMK A01 T02290089  RH  041%=      5-min Rain = 0
KOD1 181657Z 15013KT 23/09 A2976 RMK A01 T02290085  RH  040%=      5-min Rain = 0
KOD1 181658Z 15013KT 23/09 A2976 RMK A01 T02260086  RH  041%=      5-min Rain = 0
KOD1 181659Z 16011KT 23/09 A2976 RMK A01 T02250086  RH  041%=      5-min Rain = 0
KOD1 181700Z 15011KT 23/09 A2976 RMK A01 T02260087  RH  041%=      5-min Rain = 0
KOD1 181701Z 15012KT 23/09 A2976 RMK A01 T02250085  RH  041%=      5-min Rain = 0
KOD1 181702Z 14012KT 23/09 A2976 RMK A01 T02250086  RH  041%=      5-min Rain = 0
KOD1 181703Z 15013KT 22/09 A2976 RMK A01 T02240086  RH  041%=      5-min Rain = 0
KOD1 181704Z 14013KT 23/09 A2976 RMK A01 T02260087  RH  041%=      5-min Rain = 0
KOD1 181705Z 16013KT 23/09 A2976 RMK A01 T02280088  RH  041%=      5-min Rain = 0
KOD1 181706Z 17014KT 23/09 A2976 RMK A01 T02290087  RH  040%=      5-min Rain = 0
KOD1 181707Z 18012KT 23/09 A2976 RMK A01 T02310088  RH  040%=      5-min Rain = 0
KOD1 181708Z 16012KT 23/09 A2976 RMK A01 T02330087  RH  040%=      5-min Rain = 0
KOD1 181709Z 15010KT 23/09 A2976 RMK A01 T02320087  RH  039%=      5-min Rain = 0
KOD1 181710Z 15013KT 23/09 A2976 RMK A01 T02330088  RH  039%=      5-min Rain = 0
KOD1 181711Z 16012KT 23/09 A2976 RMK A01 T02340086  RH  039%=      5-min Rain = 0
KOD1 181712Z 14012KT 23/09 A2976 RMK A01 T02320086  RH  039%=      5-min Rain = 0
KOD1 181713Z 15011KT 23/09 A2976 RMK A01 T02310087  RH  040%=      5-min Rain = 0
KOD1 181714Z 14010KT 23/09 A2976 RMK A01 T02320088  RH  040%=      5-min Rain = 0
KOD1 181715Z 14010KT 23/09 A2976 RMK A01 T02340089  RH  040%=      5-min Rain = 0
KOD1 181716Z 15008KT 24/09 A2976 RMK A01 T02370091  RH  039%=      5-min Rain = 0
KOD1 181717Z 15011KT 24/09 A2976 RMK A01 T02390089  RH  038%=      5-min Rain = 0
KOD1 181718Z 15010KT 24/09 A2976 RMK A01 T02370090  RH  039%=      5-min Rain = 0
KOD1 181719Z 17013KT 24/09 A2975 RMK A01 T02380091  RH  039%=      5-min Rain = 0
KOD1 181720Z 15013KT 24/09 A2975 RMK A01 T02400090  RH  038%=      5-min Rain = 0
KOD1 181721Z 14013KT 24/09 A2975 RMK A01 T02380088  RH  038%=      5-min Rain = 0
KOD1 181722Z 14012KT 24/09 A2976 RMK A01 T02350087  RH  039%=      5-min Rain = 0
KOD1 181723Z 14011G18KT 23/09 A2975 RMK A01 T02340089  RH  040%=      5-min Rain = 0
KOD1 181724Z 14015KT 23/09 A2975 RMK A01 T02340088  RH  039%=      5-min Rain = 0
KOD1 181725Z 15014KT 23/09 A2975 RMK A01 T02320086  RH  039%=      5-min Rain = 0
KOD1 181726Z 15012KT 23/09 A2975 RMK A01 T02310087  RH  040%=      5-min Rain = 0
KOD1 181727Z 15010KT 23/09 A2975 RMK A01 T02320088  RH  040%=      5-min Rain = 0
KOD1 181728Z 16013KT 23/09 A2975 RMK A01 T02320089  RH  040%=      5-min Rain = 0
KOD1 181729Z 14012KT 24/09 A2975 RMK A01 T02370090  RH  039%=      5-min Rain = 0
KOD1 181730Z 16010KT 24/09 A2975 RMK A01 T02380091  RH  039%=      5-min Rain = 0
KOD1 181731Z 16009KT 24/09 A2975 RMK A01 T02410092  RH  039%=      5-min Rain = 0
KOD1 181732Z 15012KT 25/09 A2975 RMK A01 T02460093  RH  038%=      5-min Rain = 0
KOD1 181733Z 15015KT 24/09 A2975 RMK A01 T02430090  RH  038%=      5-min Rain = 0
KOD1 181734Z 16014KT 24/09 A2975 RMK A01 T02400089  RH  038%=      5-min Rain = 0
KOD1 181735Z 16013KT 24/09 A2975 RMK A01 T02390088  RH  038%=      5-min Rain = 0
KOD1 181736Z 16013KT 24/09 A2975 RMK A01 T02380088  RH  038%=      5-min Rain = 0
KOD1 181737Z 15010KT 24/09 A2975 RMK A01 T02400090  RH  039%=      5-min Rain = 0
KOD1 181738Z 15011G16KT 24/09 A2975 RMK A01 T02410091  RH  039%=      5-min Rain = 0
KOD1 181739Z 15015KT 24/09 A2975 RMK A01 T02410091  RH  038%=      5-min Rain = 0
KOD1 181740Z 15013KT 24/09 A2974 RMK A01 T02410089  RH  038%=      5-min Rain = 0
KOD1 181741Z 15016KT 24/09 A2974 RMK A01 T02390089  RH  039%=      5-min Rain = 0
KOD1 181742Z 15015KT 24/09 A2974 RMK A01 T02390089  RH  039%=      5-min Rain = 0
KOD1 181743Z 15014KT 24/09 A2974 RMK A01 T02390091  RH  039%=      5-min Rain = 0
KOD1 181744Z 14015KT 24/09 A2974 RMK A01 T02400091  RH  039%=      5-min Rain = 0
KOD1 181745Z 16014KT 24/09 A2974 RMK A01 T02420091  RH  038%=      5-min Rain = 0
KOD1 181746Z 15014KT 24/09 A2974 RMK A01 T02420090  RH  038%=      5-min Rain = 0
KOD1 181747Z 15012KT 24/09 A2974 RMK A01 T02420091  RH  038%=      5-min Rain = 0
KOD1 181748Z 16012KT 24/09 A2974 RMK A01 T02430092  RH  038%=      5-min Rain = 0
KOD1 181749Z 15015KT 25/09 A2974 RMK A01 T02480094  RH  038%=      5-min Rain = 0
KOD1 181750Z 16014KT 25/09 A2974 RMK A01 T02470090  RH  037%=      5-min Rain = 0
KOD1 181751Z 16011KT 25/09 A2974 RMK A01 T02460090  RH  037%=      5-min Rain = 0
KOD1 181752Z 16012G17KT 25/09 A2973 RMK A01 T02460093  RH  038%=      5-min Rain = 0
KOD1 181753Z 14013G18KT 25/09 A2973 RMK A01 T02480093  RH  037%=      5-min Rain = 0
KOD1 181754Z 15012KT 25/09 A2973 RMK A01 T02480093  RH  037%=      5-min Rain = 0
KOD1 181755Z 16014KT 25/09 A2973 RMK A01 T02470092  RH  037%=      5-min Rain = 0
KOD1 181756Z 16011KT 25/09 A2973 RMK A01 T02470091  RH  037%=      5-min Rain = 0
KOD1 181757Z 16012KT 25/09 A2973 RMK A01 T02470092  RH  037%=      5-min Rain = 0
KOD1 181758Z 16013KT 25/09 A2973 RMK A01 T02470091  RH  037%=      5-min Rain = 0
KOD1 181759Z 14016KT 25/09 A2973 RMK A01 T02480093  RH  037%=      5-min Rain = 0
KOD1 181800Z 14014KT 25/09 A2973 RMK A01 T02460091  RH  037%=      5-min Rain = 0
KOD1 181801Z 16013KT 25/09 A2973 RMK A01 T02450092  RH  038%=      5-min Rain = 0
KOD1 181802Z 16015KT 25/09 A2973 RMK A01 T02490094  RH  037%=      5-min Rain = 0
KOD1 181803Z 16015KT 25/09 A2973 RMK A01 T02510090  RH  036%=      5-min Rain = 0
KOD1 181804Z 16015KT 25/09 A2972 RMK A01 T02500091  RH  036%=      5-min Rain = 0
KOD1 181805Z 15012KT 25/09 A2972 RMK A01 T02520092  RH  036%=      5-min Rain = 0
KOD1 181806Z 15013KT 25/09 A2972 RMK A01 T02540094  RH  036%=      5-min Rain = 0
KOD1 181807Z 15013KT 25/09 A2972 RMK A01 T02540093  RH  036%=      5-min Rain = 0
KOD1 181808Z 14014KT 25/09 A2972 RMK A01 T02540093  RH  036%=      5-min Rain = 0
KOD1 181809Z 15014G19KT 25/09 A2972 RMK A01 T02530094  RH  037%=      5-min Rain = 0
KOD1 181810Z 15016KT 25/09 A2972 RMK A01 T02540094  RH  036%=      5-min Rain = 0
KOD1 181811Z 17014KT 26/09 A2972 RMK A01 T02560093  RH  036%=      5-min Rain = 0
KOD1 181812Z 15013G18KT 26/10 A2972 RMK A01 T02590096  RH  036%=      5-min Rain = 0
KOD1 181813Z 15015KT 26/09 A2972 RMK A01 T02590093  RH  035%=      5-min Rain = 0
KOD1 181814Z 15015KT 26/09 A2972 RMK A01 T02570093  RH  035%=      5-min Rain = 0
KOD1 181815Z 15016KT 26/09 A2972 RMK A01 T02580093  RH  035%=      5-min Rain = 0
KOD1 181816Z 16014KT 26/09 A2972 RMK A01 T02580093  RH  035%=      5-min Rain = 0
KOD1 181817Z 17015KT 26/09 A2972 RMK A01 T02570093  RH  035%=      5-min Rain = 0
KOD1 181818Z 16016KT 26/09 A2971 RMK A01 T02580094  RH  035%=      5-min Rain = 0
KOD1 181819Z 14014G19KT 26/10 A2972 RMK A01 T02600095  RH  035%=      5-min Rain = 0
KOD1 181820Z 15013KT 26/10 A2972 RMK A01 T02590096  RH  036%=      5-min Rain = 0
KOD1 181821Z 15013KT 26/10 A2971 RMK A01 T02620095  RH  035%=      5-min Rain = 0
KOD1 181822Z 15015KT 26/10 A2971 RMK A01 T02620095  RH  035%=      5-min Rain = 0
KOD1 181823Z 15015KT 26/10 A2971 RMK A01 T02620096  RH  035%=      5-min Rain = 0
KOD1 181824Z 13016KT 26/10 A2971 RMK A01 T02630096  RH  035%=      5-min Rain = 0
KOD1 181825Z 14015KT 26/10 A2971 RMK A01 T02620095  RH  035%=      5-min Rain = 0
KOD1 181826Z 15016G21KT 26/10 A2971 RMK A01 T02620095  RH  035%=      5-min Rain = 0
KOD1 181827Z 14017KT 26/09 A2971 RMK A01 T02610094  RH  035%=      5-min Rain = 0
KOD1 181828Z 15016KT 26/09 A2971 RMK A01 T02580093  RH  035%=      5-min Rain = 0
KOD1 181829Z 15016KT 26/09 A297 RMK A01 T02590094  RH  035%=      5-min Rain = 0
KOD1 181830Z 14015KT 26/09 A297 RMK A01 T02580094  RH  036%=      5-min Rain = 0
KOD1 181831Z 15016KT 26/10 A297 RMK A01 T02600096  RH  035%=      5-min Rain = 0
KOD1 181832Z 16017KT 26/10 A297 RMK A01 T02620095  RH  035%=      5-min Rain = 0
KOD1 181833Z 15016KT 26/10 A297 RMK A01 T02620096  RH  035%=      5-min Rain = 0
KOD1 181834Z 14018KT 26/10 A297 RMK A01 T02640096  RH  035%=      5-min Rain = 0
KOD1 181835Z 14018KT 26/10 A297 RMK A01 T02620095  RH  035%=      5-min Rain = 0
KOD1 181836Z 15018KT 26/10 A297 RMK A01 T02620095  RH  035%=      5-min Rain = 0
KOD1 181837Z 15017KT 26/10 A297 RMK A01 T02630095  RH  035%=      5-min Rain = 0
KOD1 181838Z 16018KT 26/10 A297 RMK A01 T02640095  RH  035%=      5-min Rain = 0
KOD1 181839Z 16014KT 27/10 A297 RMK A01 T02660096  RH  034%=      5-min Rain = 0
KOD1 181840Z 15013KT 27/10 A297 RMK A01 T02680098  RH  034%=      5-min Rain = 0
KOD1 181841Z 16016KT 27/10 A297 RMK A01 T02700098  RH  034%=      5-min Rain = 0
KOD1 181842Z 16016KT 27/10 A297 RMK A01 T02710097  RH  033%=      5-min Rain = 0
KOD1 181843Z 15016KT 27/10 A2969 RMK A01 T02710096  RH  033%=      5-min Rain = 0
KOD1 181844Z 15017KT 27/10 A2969 RMK A01 T02680096  RH  034%=      5-min Rain = 0
KOD1 181845Z 17013KT 27/10 A2969 RMK A01 T02680096  RH  034%=      5-min Rain = 0
KOD1 181846Z 16013KT 27/10 A2969 RMK A01 T02710097  RH  034%=      5-min Rain = 0
KOD1 181847Z 17016KT 27/10 A2969 RMK A01 T02720096  RH  033%=      5-min Rain = 0
KOD1 181848Z 16017KT 27/10 A2969 RMK A01 T02710096  RH  033%=      5-min Rain = 0
KOD1 181849Z 16016KT 27/10 A2969 RMK A01 T02710095  RH  033%=      5-min Rain = 0
KOD1 181850Z 15016KT 27/10 A2969 RMK A01 T02680095  RH  034%=      5-min Rain = 0
KOD1 181851Z 15017KT 27/10 A2969 RMK A01 T02680096  RH  034%=      5-min Rain = 0
KOD1 181852Z 15017KT 27/10 A2969 RMK A01 T02660095  RH  034%=      5-min Rain = 0
KOD1 181853Z 15014KT 27/09 A2969 RMK A01 T02660094  RH  034%=      5-min Rain = 0
KOD1 181854Z 15014KT 27/10 A2969 RMK A01 T02690096  RH  034%=      5-min Rain = 0
KOD1 181855Z 15018G23KT 27/10 A2968 RMK A01 T02690096  RH  034%=      5-min Rain = 0
KOD1 181856Z 16018KT 27/09 A2968 RMK A01 T02690094  RH  033%=      5-min Rain = 0
KOD1 181857Z 14018G24KT 27/10 A2968 RMK A01 T02690095  RH  034%=      5-min Rain = 0
KOD1 181858Z 15017KT 27/09 A2968 RMK A01 T02670094  RH  034%=      5-min Rain = 0
KOD1 181859Z 15015KT 27/10 A2968 RMK A01 T02670095  RH  034%=      5-min Rain = 0
KOD1 181900Z 15014KT 27/10 A2968 RMK A01 T02700097  RH  034%=      5-min Rain = 0
KOD1 181901Z 14015G20KT 27/10 A2968 RMK A01 T02710096  RH  033%=      5-min Rain = 0
KOD1 181902Z 15018KT 27/10 A2968 RMK A01 T02720095  RH  033%=      5-min Rain = 0
KOD1 181903Z 16019KT 27/09 A2968 RMK A01 T02720094  RH  033%=      5-min Rain = 0
KOD1 181904Z 15015KT 27/10 A2968 RMK A01 T02740095  RH  032%=      5-min Rain = 0
KOD1 181905Z 15018KT 27/10 A2968 RMK A01 T02740095  RH  033%=      5-min Rain = 0
KOD1 181906Z 15017KT 27/09 A2968 RMK A01 T02730094  RH  033%=      5-min Rain = 0
KOD1 181907Z 15016KT 27/09 A2968 RMK A01 T02730094  RH  033%=      5-min Rain = 0
KOD1 181908Z 14017KT 27/10 A2967 RMK A01 T02730095  RH  033%=      5-min Rain = 0
KOD1 181909Z 15015G20KT 27/10 A2967 RMK A01 T02730095  RH  033%=      5-min Rain = 0
KOD1 181910Z 14014KT 27/10 A2967 RMK A01 T02740095  RH  033%=      5-min Rain = 0
KOD1 181911Z 15015KT 27/10 A2967 RMK A01 T02740095  RH  032%=      5-min Rain = 0
KOD1 181912Z 16017G22KT 28/10 A2967 RMK A01 T02750096  RH  032%=      5-min Rain = 0
KOD1 181913Z 15018KT 28/09 A2967 RMK A01 T02770094  RH  032%=      5-min Rain = 0
KOD1 181914Z 15017KT 28/09 A2967 RMK A01 T02760094  RH  032%=      5-min Rain = 0
KOD1 181915Z 15016KT 28/09 A2967 RMK A01 T02760094  RH  032%=      5-min Rain = 0
KOD1 181916Z 15018KT 28/09 A2967 RMK A01 T02750094  RH  032%=      5-min Rain = 0
KOD1 181917Z 16015KT 28/10 A2967 RMK A01 T02770095  RH  032%=      5-min Rain = 0
KOD1 181918Z 15014G20KT 28/10 A2966 RMK A01 T02800097  RH  032%=      5-min Rain = 0
KOD1 181919Z 14021KT 28/09 A2966 RMK A01 T02780094  RH  032%=      5-min Rain = 0
KOD1 181920Z 15020KT 27/09 A2966 RMK A01 T02740093  RH  032%=      5-min Rain = 0
KOD1 181921Z 17018KT 27/09 A2966 RMK A01 T02710091  RH  032%=      5-min Rain = 0
KOD1 181922Z 17020KT 27/09 A2966 RMK A01 T02720092  RH  032%=      5-min Rain = 0
KOD1 181923Z 15018KT 28/09 A2966 RMK A01 T02750093  RH  032%=      5-min Rain = 0
KOD1 181924Z 14019KT 27/09 A2966 RMK A01 T02720092  RH  032%=      5-min Rain = 0
KOD1 181925Z 14014KT 27/09 A2966 RMK A01 T02690092  RH  033%=      5-min Rain = 0
KOD1 181926Z 14015G21KT 27/09 A2966 RMK A01 T02680092  RH  033%=      5-min Rain = 0
KOD1 181927Z 14019KT 27/09 A2966 RMK A01 T02690092  RH  033%=      5-min Rain = 0
KOD1 181928Z 14016KT 27/09 A2965 RMK A01 T02670092  RH  033%=      5-min Rain = 0
KOD1 181929Z 14019KT 27/09 A2965 RMK A01 T02670091  RH  033%=      5-min Rain = 0
KOD1 181930Z 15018KT 27/09 A2965 RMK A01 T02680091  RH  033%=      5-min Rain = 0
KOD1 181931Z 15017KT 27/09 A2965 RMK A01 T02710091  RH  032%=      5-min Rain = 0
KOD1 181932Z 16014G19KT 27/09 A2965 RMK A01 T02730093  RH  032%=      5-min Rain = 0
KOD1 181933Z 15016KT 28/09 A2965 RMK A01 T02780094  RH  031%=      5-min Rain = 0
KOD1 181934Z 14014KT 28/09 A2965 RMK A01 T02790094  RH  031%=      5-min Rain = 0
KOD1 181935Z 14018KT 28/09 A2965 RMK A01 T02780093  RH  031%=      5-min Rain = 0
KOD1 181936Z 15020KT 28/09 A2965 RMK A01 T02770092  RH  031%=      5-min Rain = 0
KOD1 181937Z 14019KT 28/09 A2965 RMK A01 T02770092  RH  031%=      5-min Rain = 0
KOD1 181938Z 15016KT 28/09 A2965 RMK A01 T02780093  RH  031%=      5-min Rain = 0
KOD1 181939Z 16015KT 28/09 A2965 RMK A01 T02820094  RH  031%=      5-min Rain = 0
KOD1 181940Z 15014KT 29/09 A2965 RMK A01 T02850094  RH  030%=      5-min Rain = 0
KOD1 181941Z 16016G21KT 29/09 A2965 RMK A01 T02850092  RH  030%=      5-min Rain = 0
KOD1 181942Z 16015KT 28/09 A2965 RMK A01 T02830092  RH  030%=      5-min Rain = 0
KOD1 181943Z 15016KT 29/09 A2965 RMK A01 T02850092  RH  030%=      5-min Rain = 0
KOD1 181944Z 15013KT 28/09 A2965 RMK A01 T02820093  RH  031%=      5-min Rain = 0
KOD1 181945Z 15015G20KT 28/09 A2965 RMK A01 T02830093  RH  030%=      5-min Rain = 0
KOD1 181946Z 16016KT 28/09 A2965 RMK A01 T02830092  RH  030%=      5-min Rain = 0
KOD1 181947Z 16015KT 28/09 A2965 RMK A01 T02840093  RH  030%=      5-min Rain = 0
KOD1 181948Z 15017KT 29/09 A2965 RMK A01 T02850092  RH  030%=      5-min Rain = 0
KOD1 181949Z 15018KT 28/09 A2965 RMK A01 T02820091  RH  030%=      5-min Rain = 0
KOD1 181950Z 14016KT 28/09 A2965 RMK A01 T02790090  RH  031%=      5-min Rain = 0
KOD1 181951Z 15017KT 28/09 A2965 RMK A01 T02770091  RH  031%=      5-min Rain = 0
KOD1 181952Z 15014KT 28/09 A2965 RMK A01 T02790094  RH  031%=      5-min Rain = 0
KOD1 181953Z 16014KT 29/09 A2965 RMK A01 T02850094  RH  030%=      5-min Rain = 0
KOD1 181954Z 16013KT 29/09 A2965 RMK A01 T02880093  RH  030%=      5-min Rain = 0
KOD1 181955Z 16014KT 29/09 A2965 RMK A01 T02890090  RH  029%=      5-min Rain = 0
KOD1 181956Z 16014KT 29/09 A2965 RMK A01 T02890090  RH  029%=      5-min Rain = 0
KOD1 181957Z 14013KT 29/09 A2965 RMK A01 T02880093  RH  030%=      5-min Rain = 0
KOD1 181958Z 14016G22KT 29/09 A2965 RMK A01 T02880094  RH  030%=      5-min Rain = 0
KOD1 181959Z 15018KT 29/09 A2965 RMK A01 T02850089  RH  029%=      5-min Rain = 0
KOD1 182000Z 15015KT 28/09 A2965 RMK A01 T02830090  RH  030%=      5-min Rain = 0
KOD1 182001Z 16017KT 28/09 A2965 RMK A01 T02840089  RH  030%=      5-min Rain = 0
KOD1 182002Z 15015KT 28/09 A2965 RMK A01 T02840091  RH  030%=      5-min Rain = 0
KOD1 182003Z 15017KT 29/09 A2964 RMK A01 T02850089  RH  029%=      5-min Rain = 0
KOD1 182004Z 15016KT 28/09 A2964 RMK A01 T02840091  RH  030%=      5-min Rain = 0
KOD1 182005Z 14015KT 28/09 A2964 RMK A01 T02830092  RH  030%=      5-min Rain = 0
KOD1 182006Z 14015KT 28/09 A2964 RMK A01 T02820092  RH  030%=      5-min Rain = 0
KOD1 182007Z 15015KT 28/09 A2964 RMK A01 T02820092  RH  030%=      5-min Rain = 0
KOD1 182008Z 16013KT 28/09 A2964 RMK A01 T02830093  RH  031%=      5-min Rain = 0
KOD1 182009Z 15014G21KT 29/09 A2964 RMK A01 T02860094  RH  030%=      5-min Rain = 0
KOD1 182010Z 16021KT 29/09 A2964 RMK A01 T02870089  RH  029%=      5-min Rain = 0
KOD1 182011Z 15019KT 29/09 A2964 RMK A01 T02850087  RH  029%=      5-min Rain = 0
KOD1 182012Z 16018KT 28/09 A2964 RMK A01 T02840088  RH  029%=      5-min Rain = 0
KOD1 182013Z 16015KT 29/09 A2964 RMK A01 T02860090  RH  029%=      5-min Rain = 0
KOD1 182014Z 15015KT 29/09 A2964 RMK A01 T02860089  RH  029%=      5-min Rain = 0
KOD1 182015Z 16013KT 29/09 A2964 RMK A01 T02850089  RH  029%=      5-min Rain = 0
KOD1 182016Z 15013KT 29/09 A2964 RMK A01 T02850089  RH  029%=      5-min Rain = 0
KOD1 182017Z 15012KT 29/09 A2964 RMK A01 T02850092  RH  030%=      5-min Rain = 0
KOD1 182018Z 15016KT 29/09 A2964 RMK A01 T02870092  RH  029%=      5-min Rain = 0
KOD1 182019Z 15017KT 29/09 A2964 RMK A01 T02880089  RH  029%=      5-min Rain = 0
KOD1 182020Z 17017KT 29/09 A2964 RMK A01 T02860090  RH  029%=      5-min Rain = 0
KOD1 182021Z 17018KT 29/09 A2963 RMK A01 T02860090  RH  029%=      5-min Rain = 0
KOD1 182022Z 16018KT 29/09 A2964 RMK A01 T02860092  RH  030%=      5-min Rain = 0
KOD1 182023Z 16016KT 29/09 A2964 RMK A01 T02880092  RH  029%=      5-min Rain = 0
KOD1 182024Z 16015KT 29/09 A2963 RMK A01 T02880092  RH  029%=      5-min Rain = 0
KOD1 182025Z 16017KT 29/09 A2963 RMK A01 T02870092  RH  029%=      5-min Rain = 0
KOD1 182026Z 15017KT 29/09 A2963 RMK A01 T02860094  RH  030%=      5-min Rain = 0
KOD1 182027Z 15017KT 29/09 A2963 RMK A01 T02850091  RH  030%=      5-min Rain = 0
KOD1 182028Z 14014KT 28/09 A2963 RMK A01 T02840093  RH  030%=      5-min Rain = 0
KOD1 182029Z 15014KT 29/09 A2963 RMK A01 T02850094  RH  030%=      5-min Rain = 0
KOD1 182030Z 17014KT 29/09 A2963 RMK A01 T02890094  RH  030%=      5-min Rain = 0
KOD1 182031Z 16014KT 29/09 A2963 RMK A01 T02910091  RH  029%=      5-min Rain = 0
KOD1 182032Z 15016KT 29/09 A2963 RMK A01 T02910092  RH  029%=      5-min Rain = 0
KOD1 182033Z 15015KT 29/09 A2963 RMK A01 T02900092  RH  029%=      5-min Rain = 0
KOD1 182034Z 14014KT 29/09 A2963 RMK A01 T02890093  RH  029%=      5-min Rain = 0
KOD1 182035Z 15013G18KT 29/10 A2963 RMK A01 T02880095  RH  030%=      5-min Rain = 0
KOD1 182036Z 16015KT 29/10 A2963 RMK A01 T02890095  RH  030%=      5-min Rain = 0
KOD1 182037Z 15014KT 29/09 A2963 RMK A01 T02880094  RH  030%=      5-min Rain = 0
KOD1 182038Z 14013KT 29/09 A2963 RMK A01 T02870094  RH  030%=      5-min Rain = 0
KOD1 182039Z 15013KT 29/10 A2963 RMK A01 T02860095  RH  030%=      5-min Rain = 0
KOD1 182040Z 16013KT 29/10 A2963 RMK A01 T02880095  RH  030%=      5-min Rain = 0
KOD1 182041Z 16015KT 29/09 A2963 RMK A01 T02910094  RH  029%=      5-min Rain = 0
KOD1 182042Z 16015KT 29/09 A2963 RMK A01 T02920094  RH  029%=      5-min Rain = 0
KOD1 182043Z 16017KT 29/10 A2963 RMK A01 T02930095  RH  029%=      5-min Rain = 0
KOD1 182044Z 16015KT 29/09 A2963 RMK A01 T02890091  RH  029%=      5-min Rain = 0
KOD1 182045Z 15012KT 29/09 A2963 RMK A01 T02860091  RH  030%=      5-min Rain = 0
KOD1 182046Z 13013KT 29/09 A2963 RMK A01 T02850093  RH  030%=      5-min Rain = 0
KOD1 182047Z 14013KT 29/09 A2963 RMK A01 T02850094  RH  030%=      5-min Rain = 0
KOD1 182048Z 15011KT 29/10 A2963 RMK A01 T02870096  RH  030%=      5-min Rain = 0
KOD1 182049Z 16013KT 29/10 A2963 RMK A01 T02900097  RH  030%=      5-min Rain = 0
KOD1 182050Z 16017KT 29/09 A2963 RMK A01 T02940093  RH  029%=      5-min Rain = 0
KOD1 182051Z 16014KT 29/09 A2963 RMK A01 T02930092  RH  028%=      5-min Rain = 0
KOD1 182052Z 16013KT 30/09 A2963 RMK A01 T02960094  RH  028%=      5-min Rain = 0
KOD1 182053Z 16015KT 30/09 A2963 RMK A01 T02950093  RH  028%=      5-min Rain = 0
KOD1 182054Z 17015KT 29/09 A2963 RMK A01 T02930092  RH  029%=      5-min Rain = 0
KOD1 182055Z 16017G22KT 29/09 A2963 RMK A01 T02940094  RH  029%=      5-min Rain = 0
KOD1 182056Z 14014G20KT 29/10 A2963 RMK A01 T02910096  RH  030%=      5-min Rain = 0
KOD1 182057Z 14014KT 29/10 A2963 RMK A01 T02890096  RH  030%=      5-min Rain = 0
KOD1 182058Z 15015KT 29/10 A2963 RMK A01 T02870096  RH  030%=      5-min Rain = 0
KOD1 182059Z 15014KT 29/10 A2963 RMK A01 T02880098  RH  030%=      5-min Rain = 0
KOD1 182100Z 14014KT 29/10 A2963 RMK A01 T02900097  RH  030%=      5-min Rain = 0
KOD1 182101Z 14017KT 29/10 A2963 RMK A01 T02910097  RH  030%=      5-min Rain = 0
KOD1 182102Z 15016KT 29/10 A2963 RMK A01 T02880096  RH  030%=      5-min Rain = 0
KOD1 182103Z 16018KT 29/09 A2963 RMK A01 T02860094  RH  030%=      5-min Rain = 0
KOD1 182104Z 16015KT 29/10 A2963 RMK A01 T02860095  RH  030%=      5-min Rain = 0
KOD1 182105Z 15015KT 29/10 A2963 RMK A01 T02870096  RH  030%=      5-min Rain = 0
KOD1 182106Z 15015KT 29/10 A2963 RMK A01 T02880096  RH  030%=      5-min Rain = 0
KOD1 182107Z 16015KT 29/10 A2963 RMK A01 T02890098  RH  030%=      5-min Rain = 0
KOD1 182108Z 17018KT 29/09 A2963 RMK A01 T02910093  RH  029%=      5-min Rain = 0
KOD1 182109Z 16016KT 29/09 A2963 RMK A01 T02900093  RH  029%=      5-min Rain = 0
KOD1 182110Z 16015KT 29/09 A2963 RMK A01 T02910093  RH  029%=      5-min Rain = 0
KOD1 182111Z 16014KT 29/09 A2963 RMK A01 T02910093  RH  029%=      5-min Rain = 0
KOD1 182112Z 15013KT 29/10 A2963 RMK A01 T02890095  RH  030%=      5-min Rain = 0
KOD1 182113Z 15013KT 29/10 A2963 RMK A01 T02880095  RH  030%=      5-min Rain = 0
KOD1 182114Z 15014KT 29/10 A2963 RMK A01 T02860096  RH  031%=      5-min Rain = 0
KOD1 182115Z 16017KT 29/10 A2962 RMK A01 T02850096  RH  031%=      5-min Rain = 0
KOD1 182116Z 15014KT 28/10 A2962 RMK A01 T02840096  RH  031%=      5-min Rain = 0
KOD1 182117Z 15012KT 29/10 A2962 RMK A01 T02860098  RH  031%=      5-min Rain = 0
KOD1 182118Z 15014KT 29/10 A2962 RMK A01 T02890099  RH  031%=      5-min Rain = 0
KOD1 182119Z 15014KT 29/10 A2962 RMK A01 T02890097  RH  030%=      5-min Rain = 0
KOD1 182120Z 14015KT 29/10 A2962 RMK A01 T02900097  RH  030%=      5-min Rain = 0
KOD1 182121Z 15014KT 29/10 A2962 RMK A01 T02890097  RH  030%=      5-min Rain = 0
KOD1 182122Z 15015KT 29/10 A2962 RMK A01 T02900099  RH  030%=      5-min Rain = 0
KOD1 182123Z 15014KT 29/10 A2962 RMK A01 T02900099  RH  030%=      5-min Rain = 0
KOD1 182124Z 15014KT 29/10 A2962 RMK A01 T02900098  RH  030%=      5-min Rain = 0
KOD1 182125Z 16015KT 29/10 A2962 RMK A01 T02920099  RH  030%=      5-min Rain = 0
KOD1 182126Z 17016KT 29/10 A2962 RMK A01 T02920095  RH  029%=      5-min Rain = 0
KOD1 182127Z 16013KT 29/10 A2962 RMK A01 T02920095  RH  029%=      5-min Rain = 0
KOD1 182128Z 16015KT 29/10 A2962 RMK A01 T02940098  RH  030%=      5-min Rain = 0
KOD1 182129Z 15014KT 29/10 A2962 RMK A01 T02930097  RH  029%=      5-min Rain = 0
KOD1 182130Z 15013KT 29/10 A2962 RMK A01 T02930099  RH  030%=      5-min Rain = 0
KOD1 182131Z 15011KT 30/10 A2962 RMK A01 T02950100  RH  030%=      5-min Rain = 0
KOD1 182132Z 15013KT 30/10 A2962 RMK A01 T02970102  RH  030%=      5-min Rain = 0
KOD1 182133Z 15018KT 30/10 A2962 RMK A01 T02970098  RH  029%=      5-min Rain = 0
KOD1 182134Z 15017KT 30/10 A2962 RMK A01 T02950096  RH  029%=      5-min Rain = 0
KOD1 182135Z 16015KT 29/10 A2962 RMK A01 T02930096  RH  029%=      5-min Rain = 0
KOD1 182136Z 15016KT 29/10 A2962 RMK A01 T02910095  RH  029%=      5-min Rain = 0
KOD1 182137Z 15015G20KT 29/10 A2962 RMK A01 T02900097  RH  030%=      5-min Rain = 0
KOD1 182138Z 15014KT 29/10 A2962 RMK A01 T02890098  RH  030%=      5-min Rain = 0
KOD1 182139Z 15015KT 29/10 A2962 RMK A01 T02890098  RH  030%=      5-min Rain = 0
KOD1 182140Z 15015KT 29/10 A2962 RMK A01 T02890100  RH  031%=      5-min Rain = 0
KOD1 182141Z 15014KT 29/10 A2962 RMK A01 T02900098  RH  030%=      5-min Rain = 0
KOD1 182142Z 14015KT 29/10 A2962 RMK A01 T02910098  RH  030%=      5-min Rain = 0
KOD1 182143Z 15014KT 29/10 A2962 RMK A01 T02900098  RH  030%=      5-min Rain = 0
KOD1 182144Z 14012KT 29/10 A2962 RMK A01 T02910097  RH  030%=      5-min Rain = 0
KOD1 182145Z 14015G21KT 29/10 A2962 RMK A01 T02920099  RH  030%=      5-min Rain = 0
KOD1 182146Z 14018KT 29/10 A2962 RMK A01 T02920099  RH  030%=      5-min Rain = 0
KOD1 182147Z 14017KT 29/10 A2962 RMK A01 T02900097  RH  030%=      5-min Rain = 0
KOD1 182148Z 14014KT 29/10 A2962 RMK A01 T02890097  RH  030%=      5-min Rain = 0
KOD1 182149Z 14011KT 29/10 A2962 RMK A01 T02880098  RH  031%=      5-min Rain = 0
KOD1 182150Z 14012KT 29/10 A2962 RMK A01 T02890099  RH  030%=      5-min Rain = 0
KOD1 182151Z 14015KT 29/10 A2962 RMK A01 T02890098  RH  030%=      5-min Rain = 0
KOD1 182152Z 14014KT 29/10 A2961 RMK A01 T02890099  RH  031%=      5-min Rain = 0
KOD1 182153Z 14016G22KT 29/10 A2961 RMK A01 T02900100  RH  031%=      5-min Rain = 0
KOD1 182154Z 14015KT 29/10 A2962 RMK A01 T02900098  RH  030%=      5-min Rain = 0
KOD1 182155Z 15013KT 29/10 A2962 RMK A01 T02910100  RH  030%=      5-min Rain = 0
KOD1 182156Z 15014KT 29/10 A2962 RMK A01 T02920100  RH  030%=      5-min Rain = 0
KOD1 182157Z 15017KT 29/10 A2962 RMK A01 T02910099  RH  030%=      5-min Rain = 0
KOD1 182158Z 15015G20KT 29/10 A2961 RMK A01 T02900099  RH  030%=      5-min Rain = 0
KOD1 182159Z 15013KT 29/10 A2961 RMK A01 T02910100  RH  030%=      5-min Rain = 0
KOD1 182200Z 15014KT 29/10 A2961 RMK A01 T02910100  RH  030%=      5-min Rain = 0
KOD1 182201Z 14014KT 29/10 A2961 RMK A01 T02900099  RH  030%=      5-min Rain = 0
KOD1 182202Z 14018G23KT 29/10 A2961 RMK A01 T02880098  RH  031%=      5-min Rain = 0
KOD1 182203Z 14016KT 29/10 A2961 RMK A01 T02870098  RH  031%=      5-min Rain = 0
KOD1 182204Z 14016G21KT 29/10 A2961 RMK A01 T02870099  RH  031%=      5-min Rain = 0
KOD1 182205Z 14017KT 29/10 A2961 RMK A01 T02870098  RH  031%=      5-min Rain = 0
KOD1 182206Z 15014KT 29/10 A2961 RMK A01 T02860099  RH  031%=      5-min Rain = 0
KOD1 182207Z 14013KT 29/10 A2961 RMK A01 T02880101  RH  031%=      5-min Rain = 0
KOD1 182208Z 14016KT 29/10 A2961 RMK A01 T02880099  RH  031%=      5-min Rain = 0
KOD1 182209Z 13012KT 29/10 A2961 RMK A01 T02880100  RH  031%=      5-min Rain = 0
KOD1 182210Z 14016G21KT 29/10 A2961 RMK A01 T02880099  RH  031%=      5-min Rain = 0
KOD1 182211Z 14019KT 29/10 A2961 RMK A01 T02870099  RH  031%=      5-min Rain = 0
KOD1 182212Z 14016KT 29/10 A2961 RMK A01 T02870100  RH  031%=      5-min Rain = 0
KOD1 182213Z 14019KT 29/10 A2961 RMK A01 T02870100  RH  031%=      5-min Rain = 0
KOD1 182214Z 14019KT 29/10 A2961 RMK A01 T02850100  RH  031%=      5-min Rain = 0
KOD1 182215Z 13017KT 29/10 A2961 RMK A01 T02850100  RH  032%=      5-min Rain = 0
KOD1 182216Z 13015KT 28/10 A2961 RMK A01 T02840100  RH  032%=      5-min Rain = 0
KOD1 182217Z 13014KT 28/10 A2961 RMK A01 T02840101  RH  032%=      5-min Rain = 0
KOD1 182218Z 14013KT 29/10 A2961 RMK A01 T02860102  RH  032%=      5-min Rain = 0
KOD1 182219Z 14014G19KT 29/10 A2961 RMK A01 T02860103  RH  032%=      5-min Rain = 0
KOD1 182220Z 14015KT 29/10 A2961 RMK A01 T02860102  RH  032%=      5-min Rain = 0
KOD1 182221Z 14018G23KT 29/10 A2961 RMK A01 T02850102  RH  032%=      5-min Rain = 0
KOD1 182222Z 14016KT 28/10 A2961 RMK A01 T02840103  RH  032%=      5-min Rain = 0
KOD1 182223Z 13018G23KT 29/10 A2961 RMK A01 T02850103  RH  032%=      5-min Rain = 0
KOD1 182224Z 13017KT 28/10 A2961 RMK A01 T02830102  RH  032%=      5-min Rain = 0
KOD1 182225Z 13015G22KT 28/10 A2961 RMK A01 T02830103  RH  032%=      5-min Rain = 0
KOD1 182226Z 14015KT 28/10 A2961 RMK A01 T02840103  RH  033%=      5-min Rain = 0
KOD1 182227Z 14019KT 28/10 A2961 RMK A01 T02830102  RH  032%=      5-min Rain = 0
KOD1 182228Z 14015KT 28/10 A2961 RMK A01 T02820103  RH  033%=      5-min Rain = 0
KOD1 182229Z 14016KT 28/10 A2961 RMK A01 T02830104  RH  033%=      5-min Rain = 0
KOD1 182230Z 14018KT 28/10 A2961 RMK A01 T02830103  RH  033%=      5-min Rain = 0
KOD1 182231Z 14020KT 28/10 A2961 RMK A01 T02820102  RH  033%=      5-min Rain = 0
KOD1 182232Z 14019KT 28/10 A2961 RMK A01 T02810102  RH  033%=      5-min Rain = 0
KOD1 182233Z 14017KT 28/10 A2961 RMK A01 T02810103  RH  033%=      5-min Rain = 0
KOD1 182234Z 14016KT 28/10 A2961 RMK A01 T02800103  RH  033%=      5-min Rain = 0
KOD1 182235Z 13015G20KT 28/10 A2961 RMK A01 T02800104  RH  033%=      5-min Rain = 0
KOD1 182236Z 14013G20KT 28/10 A2961 RMK A01 T02810104  RH  033%=      5-min Rain = 0
KOD1 182237Z 13019KT 28/10 A2961 RMK A01 T02810103  RH  033%=      5-min Rain = 0
KOD1 182238Z 13018G26KT 28/10 A2961 RMK A01 T02800103  RH  033%=      5-min Rain = 0
KOD1 182239Z 13020KT 28/10 A2961 RMK A01 T02790103  RH  033%=      5-min Rain = 0
KOD1 182240Z 13020G25KT 28/10 A2961 RMK A01 T02780102  RH  033%=      5-min Rain = 0
KOD1 182241Z 13019KT 28/10 A2961 RMK A01 T02780103  RH  033%=      5-min Rain = 0
KOD1 182242Z 14015KT 28/10 A2961 RMK A01 T02780104  RH  034%=      5-min Rain = 0
KOD1 182243Z 13013KT 28/10 A2961 RMK A01 T02780104  RH  034%=      5-min Rain = 0
KOD1 182244Z 13014KT 28/11 A2961 RMK A01 T02790105  RH  034%=      5-min Rain = 0
KOD1 182245Z 13016G22KT 28/11 A2961 RMK A01 T02780105  RH  034%=      5-min Rain = 0
KOD1 182246Z 14015KT 28/11 A2961 RMK A01 T02780105  RH  034%=      5-min Rain = 0
KOD1 182247Z 13014KT 28/11 A2961 RMK A01 T02770105  RH  034%=      5-min Rain = 0
KOD1 182248Z 13015KT 28/11 A2961 RMK A01 T02770105  RH  034%=      5-min Rain = 0
KOD1 182249Z 13017KT 28/10 A2961 RMK A01 T02770104  RH  034%=      5-min Rain = 0
KOD1 182250Z 13014KT 28/11 A2961 RMK A01 T02770105  RH  034%=      5-min Rain = 0
KOD1 182251Z 13015KT 28/11 A2961 RMK A01 T02760105  RH  034%=      5-min Rain = 0
KOD1 182252Z 12015G20KT 28/11 A2961 RMK A01 T02750105  RH  034%=      5-min Rain = 0
KOD1 182253Z 13014KT 27/10 A2961 RMK A01 T02740104  RH  035%=      5-min Rain = 0
KOD1 182254Z 12013KT 27/10 A2961 RMK A01 T02730104  RH  035%=      5-min Rain = 0
KOD1 182255Z 13013KT 27/11 A2961 RMK A01 T02730105  RH  035%=      5-min Rain = 0
KOD1 182256Z 13015KT 27/11 A2961 RMK A01 T02730105  RH  035%=      5-min Rain = 0
KOD1 182257Z 13016KT 27/11 A2961 RMK A01 T02730105  RH  035%=      5-min Rain = 0
KOD1 182258Z 14013KT 27/11 A2961 RMK A01 T02740106  RH  035%=      5-min Rain = 0
KOD1 182259Z 14012G17KT 27/11 A2961 RMK A01 T02740106  RH  035%=      5-min Rain = 0
KOD1 182300Z 13012KT 27/11 A2961 RMK A01 T02740106  RH  035%=      5-min Rain = 0
KOD1 182301Z 13012G20KT 28/11 A2961 RMK A01 T02750107  RH  035%=      5-min Rain = 0
KOD1 182302Z 13017KT 27/11 A2961 RMK A01 T02740105  RH  035%=      5-min Rain = 0
KOD1 182303Z 12016KT 27/11 A2961 RMK A01 T02730105  RH  035%=      5-min Rain = 0
KOD1 182304Z 13013KT 27/11 A2961 RMK A01 T02730106  RH  035%=      5-min Rain = 0
KOD1 182305Z 13012KT 27/11 A2961 RMK A01 T02720106  RH  035%=      5-min Rain = 0
KOD1 182306Z 13015KT 27/11 A2961 RMK A01 T02720106  RH  035%=      5-min Rain = 0
KOD1 182307Z 13015KT 27/11 A2961 RMK A01 T02720106  RH  035%=      5-min Rain = 0
KOD1 182308Z 12014KT 27/11 A2961 RMK A01 T02710107  RH  036%=      5-min Rain = 0
KOD1 182309Z 12015G20KT 27/11 A2961 RMK A01 T02710106  RH  036%=      5-min Rain = 0
KOD1 182310Z 12014KT 27/11 A2961 RMK A01 T02710106  RH  036%=      5-min Rain = 0
KOD1 182311Z 13014G19KT 27/11 A2961 RMK A01 T02700106  RH  036%=      5-min Rain = 0
KOD1 182312Z 13015KT 27/11 A2961 RMK A01 T02700106  RH  036%=      5-min Rain = 0
KOD1 182313Z 13015KT 27/11 A2961 RMK A01 T02690106  RH  036%=      5-min Rain = 0
KOD1 182314Z 13014KT 27/11 A2961 RMK A01 T02690106  RH  036%=      5-min Rain = 0
KOD1 182315Z 13014KT 27/11 A2961 RMK A01 T02690106  RH  036%=      5-min Rain = 0
KOD1 182316Z 13014KT 27/11 A2961 RMK A01 T02680106  RH  036%=      5-min Rain = 0
KOD1 182317Z 13017KT 27/11 A2961 RMK A01 T02670105  RH  036%=      5-min Rain = 0
KOD1 182318Z 13018KT 27/10 A2961 RMK A01 T02660104  RH  036%=      5-min Rain = 0
KOD1 182319Z 13014KT 27/11 A2961 RMK A01 T02660105  RH  036%=      5-min Rain = 0
KOD1 182320Z 13014KT 27/11 A2961 RMK A01 T02660105  RH  036%=      5-min Rain = 0
KOD1 182321Z 13012KT 27/11 A2961 RMK A01 T02660105  RH  037%=      5-min Rain = 0
KOD1 182322Z 12012G18KT 26/11 A2961 RMK A01 T02640105  RH  037%=      5-min Rain = 0
KOD1 182323Z 13017KT 26/11 A2961 RMK A01 T02640105  RH  037%=      5-min Rain = 0
KOD1 182324Z 13013KT 26/11 A2961 RMK A01 T02630105  RH  037%=      5-min Rain = 0
KOD1 182325Z 13014KT 26/10 A2961 RMK A01 T02620104  RH  037%=      5-min Rain = 0
KOD1 182326Z 13013KT 26/11 A2961 RMK A01 T02610105  RH  037%=      5-min Rain = 0
KOD1 182327Z 13012KT 26/10 A2961 RMK A01 T02600104  RH  037%=      5-min Rain = 0
KOD1 182328Z 13014G21KT 26/11 A2961 RMK A01 T02600105  RH  038%=      5-min Rain = 0
KOD1 182329Z 13017KT 26/10 A2961 RMK A01 T02610104  RH  037%=      5-min Rain = 0
KOD1 182330Z 13015KT 26/10 A2961 RMK A01 T02610104  RH  037%=      5-min Rain = 0
KOD1 182331Z 12016KT 26/10 A2961 RMK A01 T02610104  RH  037%=      5-min Rain = 0
KOD1 182332Z 13013KT 26/10 A2961 RMK A01 T02610104  RH  037%=      5-min Rain = 0
KOD1 182333Z 13013KT 26/11 A2961 RMK A01 T02600105  RH  038%=      5-min Rain = 0
KOD1 182334Z 13011KT 26/11 A2961 RMK A01 T02600105  RH  038%=      5-min Rain = 0
KOD1 182335Z 13012KT 26/11 A2961 RMK A01 T02590105  RH  038%=      5-min Rain = 0
KOD1 182336Z 13012G17KT 26/11 A2961 RMK A01 T02590105  RH  038%=      5-min Rain = 0
KOD1 182337Z 13011G17KT 26/11 A2961 RMK A01 T02590105  RH  038%=      5-min Rain = 0
KOD1 182338Z 13016KT 26/10 A2961 RMK A01 T02580104  RH  038%=      5-min Rain = 0
KOD1 182339Z 13012KT 26/10 A2961 RMK A01 T02580104  RH  038%=      5-min Rain = 0
KOD1 182340Z 13011KT 26/11 A2961 RMK A01 T02580105  RH  038%=      5-min Rain = 0
KOD1 182341Z 13011KT 26/11 A2961 RMK A01 T02570105  RH  039%=      5-min Rain = 0
KOD1 182342Z 13013KT 26/11 A2961 RMK A01 T02560105  RH  039%=      5-min Rain = 0
KOD1 182343Z 13012G17KT 26/11 A2961 RMK A01 T02560105  RH  039%=      5-min Rain = 0
KOD1 182344Z 13012KT 26/11 A2961 RMK A01 T02560105  RH  039%=      5-min Rain = 0
KOD1 182345Z 13014G19KT 26/11 A2961 RMK A01 T02550105  RH  039%=      5-min Rain = 0
KOD1 182346Z 13012KT 26/11 A2961 RMK A01 T02550105  RH  039%=      5-min Rain = 0
KOD1 182347Z 13014KT 25/10 A2961 RMK A01 T02540104  RH  039%=      5-min Rain = 0
KOD1 182348Z 13013KT 25/10 A2961 RMK A01 T02540104  RH  039%=      5-min Rain = 0
KOD1 182349Z 13012KT 25/10 A2961 RMK A01 T02540104  RH  039%=      5-min Rain = 0
KOD1 182350Z 13012KT 25/11 A2961 RMK A01 T02530105  RH  039%=      5-min Rain = 0
KOD1 182351Z 13014KT 25/10 A2961 RMK A01 T02520104  RH  039%=      5-min Rain = 0
KOD1 182352Z 13015KT 25/10 A2961 RMK A01 T02520103  RH  039%=      5-min Rain = 0
KOD1 182353Z 13013KT 25/10 A2961 RMK A01 T02520104  RH  039%=      5-min Rain = 0
KOD1 182354Z 13013KT 25/10 A2961 RMK A01 T02520104  RH  039%=      5-min Rain = 0
KOD1 182355Z 13013KT 25/10 A2961 RMK A01 T02510103  RH  039%=      5-min Rain = 0
KOD1 182356Z 13014KT 25/10 A2961 RMK A01 T02510103  RH  039%=      5-min Rain = 0
KOD1 182357Z 13016KT 25/10 A2961 RMK A01 T02510103  RH  039%=      5-min Rain = 0
KOD1 182358Z 13014KT 25/10 A2961 RMK A01 T02500103  RH  039%=      5-min Rain = 0
KOD1 182359Z 13014KT 25/10 A2961 RMK A01 T02500103  RH  040%=      5-min Rain = 0
KOD1 190000Z 13015G20KT 25/10 A2961 RMK A01 T02500103  RH  040%=      5-min Rain = 0
KOD1 190001Z 13013KT 25/10 A2961 RMK A01 T02490102  RH  040%=      5-min Rain = 0
KOD1 190002Z 13014KT 25/10 A2961 RMK A01 T02480102  RH  040%=      5-min Rain = 0
KOD1 190003Z 13016G21KT 25/10 A2961 RMK A01 T02480102  RH  040%=      5-min Rain = 0
KOD1 190004Z 13015KT 25/10 A2961 RMK A01 T02480101  RH  040%=      5-min Rain = 0
KOD1 190005Z 13014KT 25/10 A2961 RMK A01 T02480102  RH  040%=      5-min Rain = 0
KOD1 190006Z 13013KT 25/10 A2961 RMK A01 T02470102  RH  040%=      5-min Rain = 0
KOD1 190007Z 13015KT 25/10 A2961 RMK A01 T02470102  RH  040%=      5-min Rain = 0
KOD1 190008Z 13016KT 25/10 A2961 RMK A01 T02470101  RH  040%=      5-min Rain = 0
KOD1 190009Z 13015KT 25/10 A2961 RMK A01 T02470101  RH  040%=      5-min Rain = 0
KOD1 190010Z 13014KT 25/10 A2961 RMK A01 T02470101  RH  040%=      5-min Rain = 0
KOD1 190011Z 13014KT 25/10 A2961 RMK A01 T02460101  RH  040%=      5-min Rain = 0
KOD1 190012Z 13015KT 25/10 A2961 RMK A01 T02460100  RH  040%=      5-min Rain = 0
KOD1 190013Z 13016KT 25/10 A2961 RMK A01 T02460100  RH  040%=      5-min Rain = 0
KOD1 190014Z 13017G22KT 25/10 A2961 RMK A01 T02450100  RH  040%=      5-min Rain = 0
KOD1 190015Z 13016KT 25/10 A2961 RMK A01 T02450099  RH  040%=      5-min Rain = 0
KOD1 190016Z 13015KT 25/10 A2961 RMK A01 T02450099  RH  040%=      5-min Rain = 0
KOD1 190017Z 13016KT 25/10 A2961 RMK A01 T02450099  RH  040%=      5-min Rain = 0
KOD1 190018Z 13014G19KT 24/10 A2961 RMK A01 T02440098  RH  040%=      5-min Rain = 0
KOD1 190019Z 13016KT 24/10 A2961 RMK A01 T02430098  RH  040%=      5-min Rain = 0
KOD1 190020Z 13012KT 24/10 A2961 RMK A01 T02430098  RH  040%=      5-min Rain = 0
KOD1 190021Z 13014KT 24/10 A2961 RMK A01 T02420098  RH  040%=      5-min Rain = 0
KOD1 190022Z 13015KT 24/10 A2961 RMK A01 T02410097  RH  040%=      5-min Rain = 0
KOD1 190023Z 13016G21KT 24/10 A2961 RMK A01 T02420097  RH  040%=      5-min Rain = 0
KOD1 190024Z 13015G20KT 24/10 A296 RMK A01 T02420096  RH  040%=      5-min Rain = 0
KOD1 190025Z 13014KT 24/10 A296 RMK A01 T02410096  RH  040%=      5-min Rain = 0
KOD1 190026Z 13015KT 24/10 A296 RMK A01 T02410096  RH  040%=      5-min Rain = 0
KOD1 190027Z 13014KT 24/10 A296 RMK A01 T02400096  RH  040%=      5-min Rain = 0
KOD1 190028Z 13015KT 24/10 A296 RMK A01 T02390096  RH  040%=      5-min Rain = 0
KOD1 190029Z 12013KT 24/10 A296 RMK A01 T02390095  RH  040%=      5-min Rain = 0
KOD1 190030Z 13015G20KT 24/10 A296 RMK A01 T02390095  RH  040%=      5-min Rain = 0
KOD1 190031Z 13015G21KT 24/10 A296 RMK A01 T02380095  RH  040%=      5-min Rain = 0
KOD1 190032Z 13017G22KT 24/09 A296 RMK A01 T02380094  RH  040%=      5-min Rain = 0
KOD1 190033Z 13015KT 24/09 A296 RMK A01 T02380093  RH  040%=      5-min Rain = 0
KOD1 190034Z 13012KT 24/09 A296 RMK A01 T02370094  RH  040%=      5-min Rain = 0
KOD1 190035Z 13016G21KT 24/09 A296 RMK A01 T02360093  RH  040%=      5-min Rain = 0
KOD1 190036Z 13015G20KT 24/09 A296 RMK A01 T02370093  RH  040%=      5-min Rain = 0
KOD1 190037Z 13015KT 24/09 A296 RMK A01 T02360093  RH  040%=      5-min Rain = 0
KOD1 190038Z 13014KT 24/09 A296 RMK A01 T02350093  RH  040%=      5-min Rain = 0
KOD1 190039Z 13017G22KT 24/09 A296 RMK A01 T02350092  RH  040%=      5-min Rain = 0
KOD1 190040Z 13015KT 24/09 A296 RMK A01 T02350092  RH  040%=      5-min Rain = 0
KOD1 190041Z 13016KT 24/09 A296 RMK A01 T02350092  RH  040%=      5-min Rain = 0
KOD1 190042Z 13015KT 24/09 A296 RMK A01 T02350092  RH  040%=      5-min Rain = 0
KOD1 190043Z 13017KT 24/09 A296 RMK A01 T02350092  RH  040%=      5-min Rain = 0
KOD1 190044Z 13016KT 23/09 A296 RMK A01 T02340092  RH  040%=      5-min Rain = 0
KOD1 190045Z 13015KT 23/09 A296 RMK A01 T02340092  RH  040%=      5-min Rain = 0
KOD1 190046Z 13017KT 23/09 A296 RMK A01 T02340092  RH  040%=      5-min Rain = 0
KOD1 190047Z 13017G22KT 23/09 A296 RMK A01 T02340092  RH  040%=      5-min Rain = 0
KOD1 190048Z 13017KT 23/09 A296 RMK A01 T02330092  RH  040%=      5-min Rain = 0
KOD1 190049Z 13015KT 23/09 A296 RMK A01 T02330091  RH  041%=      5-min Rain = 0
KOD1 190050Z 13015G20KT 23/09 A296 RMK A01 T02320091  RH  041%=      5-min Rain = 0
KOD1 190051Z 13013KT 23/09 A296 RMK A01 T02320091  RH  041%=      5-min Rain = 0
KOD1 190052Z 13014KT 23/09 A296 RMK A01 T02310092  RH  041%=      5-min Rain = 0
KOD1 190053Z 13014KT 23/09 A296 RMK A01 T02310091  RH  041%=      5-min Rain = 0
KOD1 190054Z 13013KT 23/09 A296 RMK A01 T02300091  RH  041%=      5-min Rain = 0
KOD1 190055Z 13014KT 23/09 A296 RMK A01 T02290091  RH  041%=      5-min Rain = 0
KOD1 190056Z 13013G18KT 23/09 A296 RMK A01 T02290091  RH  041%=      5-min Rain = 0
KOD1 190057Z 12015KT 23/09 A296 RMK A01 T02290091  RH  041%=      5-min Rain = 0
KOD1 190058Z 13015KT 23/09 A296 RMK A01 T02300091  RH  041%=      5-min Rain = 0
KOD1 190059Z 13013KT 23/09 A296 RMK A01 T02290091  RH  041%=      5-min Rain = 0
KOD1 190100Z 13014KT 23/09 A296 RMK A01 T02290091  RH  041%=      5-min Rain = 0
KOD1 190101Z 13015KT 23/09 A296 RMK A01 T02290090  RH  041%=      5-min Rain = 0
KOD1 190102Z 13014KT 23/09 A296 RMK A01 T02290090  RH  041%=      5-min Rain = 0
KOD1 190103Z 13014KT 23/09 A2961 RMK A01 T02290090  RH  041%=      5-min Rain = 0
KOD1 190104Z 13016KT 23/09 A2961 RMK A01 T02280089  RH  041%=      5-min Rain = 0
KOD1 190105Z 13015KT 23/09 A2961 RMK A01 T02280089  RH  041%=      5-min Rain = 0
KOD1 190106Z 13016KT 23/09 A2961 RMK A01 T02280089  RH  041%=      5-min Rain = 0
KOD1 190107Z 13015KT 23/09 A2961 RMK A01 T02270088  RH  041%=      5-min Rain = 0
KOD1 190108Z 13016G22KT 23/09 A2961 RMK A01 T02270088  RH  041%=      5-min Rain = 0
KOD1 190109Z 13015KT 23/09 A2961 RMK A01 T02260088  RH  041%=      5-min Rain = 0
KOD1 190110Z 13016G21KT 23/09 A2961 RMK A01 T02260087  RH  041%=      5-min Rain = 0
KOD1 190111Z 13015G20KT 23/09 A2961 RMK A01 T02260087  RH  041%=      5-min Rain = 0
KOD1 190112Z 13015G20KT 23/09 A2961 RMK A01 T02260087  RH  041%=      5-min Rain = 0
KOD1 190113Z 13013G18KT 23/09 A2961 RMK A01 T02250087  RH  041%=      5-min Rain = 0
KOD1 190114Z 13014KT 23/09 A2961 RMK A01 T02250086  RH  041%=      5-min Rain = 0
KOD1 190115Z 13016KT 22/09 A2961 RMK A01 T02240086  RH  041%=      5-min Rain = 0
KOD1 190116Z 13013G19KT 23/09 A2961 RMK A01 T02250086  RH  041%=      5-min Rain = 0
KOD1 190117Z 13016KT 22/09 A2961 RMK A01 T02240085  RH  041%=      5-min Rain = 0
KOD1 190118Z 13013KT 22/09 A2961 RMK A01 T02240085  RH  041%=      5-min Rain = 0
KOD1 190119Z 13014KT 22/09 A2961 RMK A01 T02230085  RH  041%=      5-min Rain = 0
KOD1 190120Z 13014KT 22/08 A2961 RMK A01 T02220084  RH  041%=      5-min Rain = 0
KOD1 190121Z 13017KT 22/08 A2961 RMK A01 T02220083  RH  041%=      5-min Rain = 0
KOD1 190122Z 14016G23KT 22/08 A2961 RMK A01 T02230083  RH  041%=      5-min Rain = 0
KOD1 190123Z 14018KT 22/08 A2961 RMK A01 T02230082  RH  040%=      5-min Rain = 0
KOD1 190124Z 13017KT 22/08 A2961 RMK A01 T02240082  RH  040%=      5-min Rain = 0
KOD1 190125Z 13016G21KT 22/08 A2961 RMK A01 T02240081  RH  040%=      5-min Rain = 0
KOD1 190126Z 13016G21KT 22/08 A2961 RMK A01 T02230081  RH  040%=      5-min Rain = 0
KOD1 190127Z 13017KT 22/08 A2961 RMK A01 T02230081  RH  040%=      5-min Rain = 0
KOD1 190128Z 13016KT 22/08 A2961 RMK A01 T02230080  RH  040%=      5-min Rain = 0
KOD1 190129Z 14016KT 22/08 A2961 RMK A01 T02230080  RH  040%=      5-min Rain = 0
KOD1 190130Z 14014G19KT 22/08 A2961 RMK A01 T02230080  RH  040%=      5-min Rain = 0
KOD1 190131Z 14015KT 22/08 A2961 RMK A01 T02220080  RH  040%=      5-min Rain = 0
KOD1 190132Z 13015KT 22/08 A2961 RMK A01 T02220080  RH  040%=      5-min Rain = 0
KOD1 190133Z 13014KT 22/08 A2962 RMK A01 T02210079  RH  040%=      5-min Rain = 0
KOD1 190134Z 13015KT 22/08 A2962 RMK A01 T02210079  RH  040%=      5-min Rain = 0
KOD1 190135Z 14015KT 22/08 A2962 RMK A01 T02210079  RH  040%=      5-min Rain = 0
KOD1 190136Z 14014KT 22/08 A2962 RMK A01 T02210079  RH  040%=      5-min Rain = 0
KOD1 190137Z 14014KT 22/08 A2962 RMK A01 T02200079  RH  040%=      5-min Rain = 0
KOD1 190138Z 14015KT 22/08 A2962 RMK A01 T02200078  RH  040%=      5-min Rain = 0
KOD1 190139Z 14013G18KT 22/08 A2962 RMK A01 T02200078  RH  040%=      5-min Rain = 0
KOD1 190140Z 14015KT 22/08 A2962 RMK A01 T02190078  RH  040%=      5-min Rain = 0
KOD1 190141Z 14016G21KT 22/08 A2962 RMK A01 T02190077  RH  040%=      5-min Rain = 0
KOD1 190142Z 14015KT 22/08 A2962 RMK A01 T02190077  RH  040%=      5-min Rain = 0
KOD1 190143Z 14014KT 22/08 A2962 RMK A01 T02190077  RH  040%=      5-min Rain = 0
KOD1 190144Z 14015G20KT 22/08 A2962 RMK A01 T02190077  RH  040%=      5-min Rain = 0
KOD1 190145Z 14016KT 22/08 A2962 RMK A01 T02190076  RH  040%=      5-min Rain = 0
KOD1 190146Z 14018KT 22/08 A2962 RMK A01 T02190075  RH  039%=      5-min Rain = 0
KOD1 190147Z 14019G24KT 22/08 A2962 RMK A01 T02200075  RH  039%=      5-min Rain = 0
KOD1 190148Z 14015KT 22/08 A2962 RMK A01 T02200075  RH  039%=      5-min Rain = 0
KOD1 190149Z 14016KT 22/08 A2962 RMK A01 T02190075  RH  039%=      5-min Rain = 0
KOD1 190150Z 14016KT 22/08 A2962 RMK A01 T02190075  RH  039%=      5-min Rain = 0
KOD1 190151Z 14018KT 22/07 A2962 RMK A01 T02190074  RH  039%=      5-min Rain = 0
KOD1 190152Z 14016KT 22/07 A2962 RMK A01 T02190074  RH  039%=      5-min Rain = 0
KOD1 190153Z 14013KT 22/08 A2961 RMK A01 T02180075  RH  039%=      5-min Rain = 0
KOD1 190154Z 14016KT 22/07 A2961 RMK A01 T02180074  RH  040%=      5-min Rain = 0
KOD1 190155Z 14016KT 22/07 A2961 RMK A01 T02180074  RH  039%=      5-min Rain = 0
KOD1 190156Z 14017G22KT 22/07 A2961 RMK A01 T02180073  RH  039%=      5-min Rain = 0
KOD1 190157Z 14015G20KT 22/07 A2961 RMK A01 T02180072  RH  039%=      5-min Rain = 0
KOD1 190158Z 13018KT 22/07 A2961 RMK A01 T02170072  RH  039%=      5-min Rain = 0
KOD1 190159Z 14017KT 22/07 A2961 RMK A01 T02180071  RH  039%=      5-min Rain = 0
KOD1 190200Z 14017KT 22/07 A2961 RMK A01 T02170071  RH  039%=      5-min Rain = 0
KOD1 190201Z 14016KT 22/07 A2961 RMK A01 T02180071  RH  039%=      5-min Rain = 0
KOD1 190202Z 14016G21KT 22/07 A2961 RMK A01 T02170071  RH  039%=      5-min Rain = 0
KOD1 190203Z 14014KT 22/07 A2962 RMK A01 T02170071  RH  039%=      5-min Rain = 0
KOD1 190204Z 14015KT 22/07 A2962 RMK A01 T02160071  RH  039%=      5-min Rain = 0
KOD1 190205Z 14016KT 22/07 A2962 RMK A01 T02150071  RH  039%=      5-min Rain = 0
KOD1 190206Z 15017KT 22/07 A2962 RMK A01 T02150071  RH  039%=      5-min Rain = 0
KOD1 190207Z 14017KT 22/07 A2962 RMK A01 T02160070  RH  039%=      5-min Rain = 0
KOD1 190208Z 14018G23KT 22/07 A2962 RMK A01 T02160069  RH  039%=      5-min Rain = 0
KOD1 190209Z 15018KT 22/07 A2962 RMK A01 T02160070  RH  039%=      5-min Rain = 0
KOD1 190210Z 15019KT 22/07 A2962 RMK A01 T02160070  RH  039%=      5-min Rain = 0
KOD1 190211Z 15017G23KT 22/07 A2962 RMK A01 T02150071  RH  039%=      5-min Rain = 0
KOD1 190212Z 15017G23KT 21/07 A2962 RMK A01 T02140071  RH  039%=      5-min Rain = 0
KOD1 190213Z 14018G23KT 21/07 A2962 RMK A01 T02140070  RH  039%=      5-min Rain = 0
KOD1 190214Z 15019KT 21/07 A2962 RMK A01 T02140070  RH  039%=      5-min Rain = 0
KOD1 190215Z 14019KT 21/07 A2962 RMK A01 T02140070  RH  039%=      5-min Rain = 0
KOD1 190216Z 14019G24KT 21/07 A2962 RMK A01 T02140071  RH  039%=      5-min Rain = 0
KOD1 190217Z 15019KT 21/07 A2962 RMK A01 T02140070  RH  039%=      5-min Rain = 0
KOD1 190218Z 15019KT 21/07 A2961 RMK A01 T02140071  RH  040%=      5-min Rain = 0
KOD1 190219Z 15018G23KT 21/07 A2961 RMK A01 T02130072  RH  040%=      5-min Rain = 0
KOD1 190220Z 14018KT 21/07 A2961 RMK A01 T02130072  RH  040%=      5-min Rain = 0
KOD1 190221Z 15018KT 21/07 A2961 RMK A01 T02130074  RH  041%=      5-min Rain = 0
KOD1 190222Z 14016G21KT 21/08 A2961 RMK A01 T02120076  RH  042%=      5-min Rain = 0
KOD1 190223Z 15020KT 21/08 A296 RMK A01 T02110075  RH  041%=      5-min Rain = 0
KOD1 190224Z 15016KT 21/08 A296 RMK A01 T02110075  RH  042%=      5-min Rain = 0
KOD1 190225Z 15017KT 21/07 A296 RMK A01 T02100074  RH  041%=      5-min Rain = 0
KOD1 190226Z 15018KT 21/07 A296 RMK A01 T02100073  RH  041%=      5-min Rain = 0
KOD1 190227Z 15022KT 21/07 A296 RMK A01 T02110072  RH  041%=      5-min Rain = 0
KOD1 190228Z 15020KT 21/07 A296 RMK A01 T02110072  RH  040%=      5-min Rain = 0
KOD1 190229Z 14017KT 21/07 A296 RMK A01 T02110073  RH  041%=      5-min Rain = 0
KOD1 190230Z 14016G21KT 21/07 A2961 RMK A01 T02100073  RH  041%=      5-min Rain = 0
KOD1 190231Z 15018KT 21/08 A2961 RMK A01 T02090075  RH  042%=      5-min Rain = 0
KOD1 190232Z 15017KT 21/08 A2961 RMK A01 T02080076  RH  043%=      5-min Rain = 0
KOD1 190233Z 15018G23KT 21/08 A2961 RMK A01 T02060078  RH  043%=      5-min Rain = 0
KOD1 190234Z 14017KT 21/08 A2961 RMK A01 T02050079  RH  044%=      5-min Rain = 0
KOD1 190235Z 15014KT 20/08 A2961 RMK A01 T02040080  RH  045%=      5-min Rain = 0
KOD1 190236Z 15015KT 20/08 A2961 RMK A01 T02020082  RH  046%=      5-min Rain = 0
KOD1 190237Z 15016KT 20/08 A2961 RMK A01 T02000084  RH  047%=      5-min Rain = 0
KOD1 190238Z 15017G22KT 20/08 A296 RMK A01 T01990083  RH  047%=      5-min Rain = 0
KOD1 190239Z 15017KT 20/08 A296 RMK A01 T01990081  RH  046%=      5-min Rain = 0
KOD1 190240Z 15019G24KT 20/08 A296 RMK A01 T02000079  RH  045%=      5-min Rain = 0
KOD1 190241Z 15018KT 20/08 A296 RMK A01 T02010077  RH  045%=      5-min Rain = 0
KOD1 190242Z 15019KT 20/08 A296 RMK A01 T02010076  RH  044%=      5-min Rain = 0
KOD1 190243Z 15021KT 20/07 A296 RMK A01 T02020074  RH  044%=      5-min Rain = 0
KOD1 190244Z 15020KT 20/07 A296 RMK A01 T02020073  RH  043%=      5-min Rain = 0
KOD1 190245Z 15020KT 20/07 A296 RMK A01 T02030072  RH  043%=      5-min Rain = 0
KOD1 190246Z 15020KT 20/07 A296 RMK A01 T02030069  RH  042%=      5-min Rain = 0
KOD1 190247Z 15020G26KT 20/07 A296 RMK A01 T02040068  RH  041%=      5-min Rain = 0
KOD1 190248Z 15019G24KT 20/07 A296 RMK A01 T02040067  RH  041%=      5-min Rain = 0
KOD1 190249Z 15022KT 20/07 A2961 RMK A01 T02040065  RH  040%=      5-min Rain = 0
KOD1 190250Z 15018G24KT 21/07 A2961 RMK A01 T02050065  RH  040%=      5-min Rain = 0
KOD1 190251Z 15020KT 20/06 A2961 RMK A01 T02040064  RH  040%=      5-min Rain = 0
KOD1 190252Z 15018KT 20/06 A2961 RMK A01 T02040064  RH  040%=      5-min Rain = 0
KOD1 190253Z 15018G23KT 20/06 A2961 RMK A01 T02040064  RH  040%=      5-min Rain = 0
KOD1 190254Z 14019KT 20/06 A2961 RMK A01 T02030063  RH  040%=      5-min Rain = 0
KOD1 190255Z 15018KT 20/06 A2961 RMK A01 T02030063  RH  040%=      5-min Rain = 0
KOD1 190256Z 14019G24KT 20/06 A2961 RMK A01 T02030063  RH  040%=      5-min Rain = 0
KOD1 190257Z 15017KT 20/06 A2961 RMK A01 T02030063  RH  040%=      5-min Rain = 0
KOD1 190258Z 15019KT 20/06 A2961 RMK A01 T02020062  RH  040%=      5-min Rain = 0
KOD1 190259Z 15018KT 20/06 A2961 RMK A01 T02020062  RH  040%=      5-min Rain = 0
KOD1 190300Z 15019KT 20/06 A2961 RMK A01 T02010061  RH  040%=      5-min Rain = 0
KOD1 190301Z 14017KT 20/06 A2961 RMK A01 T02010062  RH  040%=      5-min Rain = 0
KOD1 190302Z 14017G23KT 20/06 A2961 RMK A01 T02010061  RH  040%=      5-min Rain = 0
KOD1 190303Z 14017KT 20/06 A2961 RMK A01 T02000060  RH  040%=      5-min Rain = 0
KOD1 190304Z 14019KT 20/06 A2961 RMK A01 T02000060  RH  040%=      5-min Rain = 0
KOD1 190305Z 14018KT 20/06 A2961 RMK A01 T02000060  RH  040%=      5-min Rain = 0
KOD1 190306Z 14017KT 20/06 A2961 RMK A01 T02000060  RH  040%=      5-min Rain = 0
KOD1 190307Z 15017KT 20/06 A2961 RMK A01 T02000059  RH  040%=      5-min Rain = 0
KOD1 190308Z 14018KT 20/06 A2961 RMK A01 T01990058  RH  040%=      5-min Rain = 0
KOD1 190309Z 14017KT 20/06 A2961 RMK A01 T01990057  RH  039%=      5-min Rain = 0
KOD1 190310Z 14017KT 20/06 A2961 RMK A01 T01990057  RH  039%=      5-min Rain = 0
KOD1 190311Z 14018KT 20/06 A2961 RMK A01 T01980056  RH  039%=      5-min Rain = 0
KOD1 190312Z 14018KT 20/06 A2961 RMK A01 T01990055  RH  039%=      5-min Rain = 0
KOD1 190313Z 14015KT 20/05 A2961 RMK A01 T01980054  RH  039%=      5-min Rain = 0
KOD1 190314Z 14017KT 20/05 A2961 RMK A01 T01970054  RH  039%=      5-min Rain = 0
KOD1 190315Z 14018G24KT 20/05 A2961 RMK A01 T01970053  RH  039%=      5-min Rain = 0
KOD1 190316Z 14016KT 20/05 A2961 RMK A01 T01970052  RH  038%=      5-min Rain = 0
KOD1 190317Z 14015KT 20/05 A2961 RMK A01 T01970052  RH  039%=      5-min Rain = 0
KOD1 190318Z 14016G22KT 20/05 A2961 RMK A01 T01970052  RH  039%=      5-min Rain = 0
KOD1 190319Z 14018KT 20/05 A2962 RMK A01 T01960051  RH  038%=      5-min Rain = 0
KOD1 190320Z 14015KT 20/05 A2962 RMK A01 T01970051  RH  038%=      5-min Rain = 0
KOD1 190321Z 14013KT 20/05 A2962 RMK A01 T01960051  RH  038%=      5-min Rain = 0
KOD1 190322Z 14016KT 20/05 A2962 RMK A01 T01950050  RH  038%=      5-min Rain = 0
KOD1 190323Z 14015KT 20/05 A2962 RMK A01 T01950050  RH  038%=      5-min Rain = 0
KOD1 190324Z 14014KT 20/05 A2962 RMK A01 T01950049  RH  038%=      5-min Rain = 0
KOD1 190325Z 14016KT 20/05 A2962 RMK A01 T01950048  RH  038%=      5-min Rain = 0
KOD1 190326Z 14017KT 20/05 A2962 RMK A01 T01950048  RH  038%=      5-min Rain = 0
KOD1 190327Z 14015KT 20/05 A2962 RMK A01 T01950047  RH  038%=      5-min Rain = 0
KOD1 190328Z 14014KT 19/05 A2962 RMK A01 T01940047  RH  038%=      5-min Rain = 0
KOD1 190329Z 14013KT 19/05 A2962 RMK A01 T01940047  RH  038%=      5-min Rain = 0
KOD1 190330Z 14015KT 19/05 A2962 RMK A01 T01940046  RH  038%=      5-min Rain = 0
KOD1 190331Z 14014KT 19/05 A2962 RMK A01 T01940046  RH  038%=      5-min Rain = 0
KOD1 190332Z 14013KT 19/05 A2962 RMK A01 T01930046  RH  038%=      5-min Rain = 0
KOD1 190333Z 14016KT 19/05 A2962 RMK A01 T01930045  RH  038%=      5-min Rain = 0
KOD1 190334Z 14016G21KT 19/05 A2962 RMK A01 T01940045  RH  037%=      5-min Rain = 0
KOD1 190335Z 14016KT 19/05 A2962 RMK A01 T01940045  RH  037%=      5-min Rain = 0
KOD1 190336Z 14016KT 19/05 A2963 RMK A01 T01940045  RH  037%=      5-min Rain = 0
KOD1 190337Z 14016KT 19/04 A2963 RMK A01 T01930044  RH  037%=      5-min Rain = 0
KOD1 190338Z 15015KT 19/04 A2963 RMK A01 T01930044  RH  038%=      5-min Rain = 0
KOD1 190339Z 15015KT 19/04 A2963 RMK A01 T01920044  RH  038%=      5-min Rain = 0
KOD1 190340Z 15015KT 19/04 A2963 RMK A01 T01920044  RH  038%=      5-min Rain = 0
KOD1 190341Z 15014KT 19/05 A2963 RMK A01 T01910045  RH  038%=      5-min Rain = 0
KOD1 190342Z 15016KT 19/05 A2963 RMK A01 T01910045  RH  038%=      5-min Rain = 0
KOD1 190343Z 15016KT 19/05 A2963 RMK A01 T01910045  RH  038%=      5-min Rain = 0
KOD1 190344Z 15016G21KT 19/05 A2963 RMK A01 T01910045  RH  038%=      5-min Rain = 0
KOD1 190345Z 15016KT 19/05 A2963 RMK A01 T01910045  RH  038%=      5-min Rain = 0
KOD1 190346Z 15014KT 19/05 A2963 RMK A01 T01910046  RH  038%=      5-min Rain = 0
KOD1 190347Z 15015KT 19/05 A2963 RMK A01 T01900046  RH  039%=      5-min Rain = 0
KOD1 190348Z 15015G20KT 19/05 A2963 RMK A01 T01900046  RH  039%=      5-min Rain = 0
KOD1 190349Z 15013KT 19/05 A2963 RMK A01 T01900047  RH  039%=      5-min Rain = 0
KOD1 190350Z 15014KT 19/05 A2963 RMK A01 T01890046  RH  039%=      5-min Rain = 0
KOD1 190351Z 15013KT 19/05 A2963 RMK A01 T01890046  RH  039%=      5-min Rain = 0
KOD1 190352Z 14012KT 19/05 A2963 RMK A01 T01890046  RH  039%=      5-min Rain = 0
KOD1 190353Z 15014KT 19/05 A2963 RMK A01 T01890047  RH  039%=      5-min Rain = 0
KOD1 190354Z 14014KT 19/05 A2963 RMK A01 T01890047  RH  039%=      5-min Rain = 0
KOD1 190355Z 15014KT 19/05 A2963 RMK A01 T01890047  RH  039%=      5-min Rain = 0
KOD1 190356Z 14015KT 19/05 A2963 RMK A01 T01890047  RH  039%=      5-min Rain = 0
KOD1 190357Z 14015KT 19/05 A2962 RMK A01 T01890047  RH  039%=      5-min Rain = 0
KOD1 190358Z 14017KT 19/05 A2962 RMK A01 T01890047  RH  039%=      5-min Rain = 0
KOD1 190359Z 14015KT 19/05 A2962 RMK A01 T01900047  RH  039%=      5-min Rain = 0
KOD1 190400Z 14015KT 19/05 A2962 RMK A01 T01910047  RH  039%=      5-min Rain = 0
KOD1 190401Z 14013KT 19/05 A2962 RMK A01 T01910047  RH  039%=      5-min Rain = 0
KOD1 190402Z 14013KT 19/05 A2963 RMK A01 T01900048  RH  039%=      5-min Rain = 0
KOD1 190403Z 14014KT 19/05 A2963 RMK A01 T01890048  RH  039%=      5-min Rain = 0
KOD1 190404Z 14013G18KT 19/05 A2963 RMK A01 T01890049  RH  040%=      5-min Rain = 0
KOD1 190405Z 15013KT 19/05 A2964 RMK A01 T01890049  RH  040%=      5-min Rain = 0
KOD1 190406Z 15014KT 19/05 A2964 RMK A01 T01890049  RH  040%=      5-min Rain = 0
KOD1 190407Z 15014KT 19/05 A2964 RMK A01 T01890049  RH  040%=      5-min Rain = 0
KOD1 190408Z 15014KT 19/05 A2964 RMK A01 T01890050  RH  040%=      5-min Rain = 0
KOD1 190409Z 15013KT 19/05 A2964 RMK A01 T01890050  RH  040%=      5-min Rain = 0
KOD1 190410Z 14012KT 19/05 A2964 RMK A01 T01890050  RH  040%=      5-min Rain = 0
KOD1 190411Z 14011KT 19/05 A2964 RMK A01 T01890051  RH  040%=      5-min Rain = 0
KOD1 190412Z 14011KT 19/05 A2964 RMK A01 T01880051  RH  041%=      5-min Rain = 0
KOD1 190413Z 15011KT 19/05 A2964 RMK A01 T01870051  RH  041%=      5-min Rain = 0
KOD1 190414Z 14011KT 19/05 A2964 RMK A01 T01870051  RH  041%=      5-min Rain = 0
KOD1 190415Z 15010KT 19/05 A2964 RMK A01 T01870051  RH  041%=      5-min Rain = 0
KOD1 190416Z 14011KT 19/05 A2964 RMK A01 T01870051  RH  041%=      5-min Rain = 0
KOD1 190417Z 14011KT 19/05 A2965 RMK A01 T01870051  RH  041%=      5-min Rain = 0
KOD1 190418Z 14011KT 19/05 A2965 RMK A01 T01880051  RH  041%=      5-min Rain = 0
KOD1 190419Z 14010KT 19/05 A2965 RMK A01 T01890051  RH  040%=      5-min Rain = 0
KOD1 190420Z 14007KT 19/05 A2965 RMK A01 T01890052  RH  040%=      5-min Rain = 0
KOD1 190421Z 15003KT 19/05 A2965 RMK A01 T01880052  RH  041%=      5-min Rain = 0
KOD1 190422Z 14002KT 19/05 A2966 RMK A01 T01870052  RH  041%=      5-min Rain = 0
KOD1 190423Z 27002KT 19/05 A2966 RMK A01 T01870052  RH  041%=      5-min Rain = 0
KOD1 190424Z 31004KT 19/05 A2967 RMK A01 T01870052  RH  041%=      5-min Rain = 0
KOD1 190425Z 31008KT 19/05 A2968 RMK A01 T01870052  RH  041%=      5-min Rain = 0
KOD1 190426Z 31013KT 19/05 A2968 RMK A01 T01850053  RH  042%=      5-min Rain = 0
KOD1 190427Z 31013KT 18/05 A2968 RMK A01 T01820054  RH  043%=      5-min Rain = 0
KOD1 190428Z 32012KT 18/06 A2968 RMK A01 T01810055  RH  043%=      5-min Rain = 0
KOD1 190429Z 32011KT 18/06 A2968 RMK A01 T01820056  RH  043%=      5-min Rain = 0
KOD1 190430Z 32012KT 18/06 A2968 RMK A01 T01830056  RH  043%=      5-min Rain = 0
KOD1 190431Z 30011KT 19/06 A2968 RMK A01 T01860057  RH  043%=      5-min Rain = 0
KOD1 190432Z 29006KT 19/06 A2968 RMK A01 T01900057  RH  042%=      5-min Rain = 0
KOD1 190433Z 28004KT 19/06 A2967 RMK A01 T01920057  RH  041%=      5-min Rain = 0
KOD1 190434Z 26002KT 19/06 A2967 RMK A01 T01930057  RH  041%=      5-min Rain = 0
KOD1 190435Z 19001KT 19/06 A2967 RMK A01 T01930058  RH  041%=      5-min Rain = 0
KOD1 190436Z 21002KT 19/06 A2967 RMK A01 T01930057  RH  041%=      5-min Rain = 0
KOD1 190437Z 23004KT 19/06 A2967 RMK A01 T01930058  RH  041%=      5-min Rain = 0
KOD1 190438Z 25004KT 19/06 A2968 RMK A01 T01920058  RH  041%=      5-min Rain = 0
KOD1 190439Z 21004KT 19/06 A2968 RMK A01 T01910058  RH  042%=      5-min Rain = 0
KOD1 190440Z 21008G13KT 19/06 A2968 RMK A01 T01900059  RH  042%=      5-min Rain = 0
KOD1 190441Z 21008KT 19/06 A2968 RMK A01 T01920060  RH  042%=      5-min Rain = 0
KOD1 190442Z 24006KT 19/06 A2968 RMK A01 T01920060  RH  042%=      5-min Rain = 0
KOD1 190443Z 23005KT 19/06 A2968 RMK A01 T01920060  RH  042%=      5-min Rain = 0
KOD1 190444Z 21002KT 19/06 A2968 RMK A01 T01880059  RH  043%=      5-min Rain = 0
KOD1 190445Z 22002KT 19/06 A2968 RMK A01 T01870059  RH  043%=      5-min Rain = 0
KOD1 190446Z 23002KT 19/06 A2967 RMK A01 T01850060  RH  044%=      5-min Rain = 0
KOD1 190447Z 21001KT 18/06 A2967 RMK A01 T01830060  RH  044%=      5-min Rain = 0
KOD1 190448Z 16000KT 18/06 A2967 RMK A01 T01820059  RH  044%=      5-min Rain = 0
KOD1 190449Z 07000KT 18/06 A2967 RMK A01 T01810058  RH  044%=      5-min Rain = 0
KOD1 190450Z 04002KT 18/06 A2968 RMK A01 T01810059  RH  045%=      5-min Rain = 0
KOD1 190451Z 04004KT 18/06 A2968 RMK A01 T01810059  RH  045%=      5-min Rain = 0
KOD1 190452Z 02005KT 18/06 A2968 RMK A01 T01780059  RH  045%=      5-min Rain = 0
KOD1 190453Z 02005KT 18/06 A2968 RMK A01 T01750059  RH  046%=      5-min Rain = 0
KOD1 190454Z 01005KT 17/06 A2968 RMK A01 T01720057  RH  047%=      5-min Rain = 0
KOD1 190455Z 00005KT 17/06 A2968 RMK A01 T01710057  RH  047%=      5-min Rain = 0
KOD1 190456Z 02004KT 17/06 A2968 RMK A01 T01690056  RH  047%=      5-min Rain = 0
KOD1 190457Z 03004KT 17/06 A2968 RMK A01 T01680056  RH  047%=      5-min Rain = 0
KOD1 190458Z 05004KT 17/06 A2967 RMK A01 T01670055  RH  048%=      5-min Rain = 0
KOD1 190459Z 06004KT 17/05 A2967 RMK A01 T01650054  RH  048%=      5-min Rain = 0

Page generated in 0.0782 seconds.